<?xml version="1.0" encoding="UTF-8" standalone="no" ?>
<gpx xmlns="http://www.topografix.com/GPX/1/1" xmlns:xsi="http://www.w3.org/2001/XMLSchema-instance" xsi:schemaLocation="http://www.topografix.com/GPX/1/1 http://www.topografix.com/GPX/1/1/gpx.xsd" version="1.1" creator="VisuGPX - https://www.visugpx.com">
  <metadata>
    <name>83 - M - Lorgues </name>
    <desc><![CDATA[83 - M - Lorgues : Chap. St Jean
2023-06-21]]></desc>
  </metadata>
  <trk>
    <name><![CDATA[2023-06-21-M Lorgues Chap. St Jean]]></name>
    <extensions>
      <line xmlns="http://www.topografix.com/GPX/gpx_style/0/2">
        <width>3</width>
      </line>
    </extensions>
    <trkseg>
      <trkpt lat="43.50633" lon="6.38968">
        <ele>176.2</ele>
        <time>2023-06-21T06:18:56.000Z</time>
      </trkpt>
      <trkpt lat="43.50621" lon="6.38911">
        <ele>178.5</ele>
        <time>2023-06-21T06:18:56.580Z</time>
      </trkpt>
      <trkpt lat="43.5057" lon="6.38918">
        <ele>183</ele>
        <time>2023-06-21T06:18:57.289Z</time>
      </trkpt>
      <trkpt lat="43.50532" lon="6.38909">
        <ele>183.2</ele>
        <time>2023-06-21T06:18:57.816Z</time>
      </trkpt>
      <trkpt lat="43.50493" lon="6.38876">
        <ele>184.3</ele>
        <time>2023-06-21T06:18:58.440Z</time>
      </trkpt>
      <trkpt lat="43.50453" lon="6.38889">
        <ele>186</ele>
        <time>2023-06-21T06:18:59.000Z</time>
      </trkpt>
      <trkpt lat="43.50423" lon="6.38891">
        <ele>187.4</ele>
        <time>2023-06-21T06:19:13.000Z</time>
      </trkpt>
      <trkpt lat="43.50417" lon="6.38878">
        <ele>188.4</ele>
        <time>2023-06-21T06:19:23.000Z</time>
      </trkpt>
      <trkpt lat="43.50411" lon="6.38867">
        <ele>189</ele>
        <time>2023-06-21T06:19:33.000Z</time>
      </trkpt>
      <trkpt lat="43.5039" lon="6.3886">
        <ele>189.2</ele>
        <time>2023-06-21T06:19:43.000Z</time>
      </trkpt>
      <trkpt lat="43.50382" lon="6.38865">
        <ele>189.2</ele>
        <time>2023-06-21T06:19:53.000Z</time>
      </trkpt>
      <trkpt lat="43.50382" lon="6.38877">
        <ele>189.5</ele>
        <time>2023-06-21T06:20:03.000Z</time>
      </trkpt>
      <trkpt lat="43.50381" lon="6.38886">
        <ele>188.6</ele>
        <time>2023-06-21T06:20:13.000Z</time>
      </trkpt>
      <trkpt lat="43.50376" lon="6.38891">
        <ele>188.6</ele>
        <time>2023-06-21T06:20:23.000Z</time>
      </trkpt>
      <trkpt lat="43.50368" lon="6.38895">
        <ele>188.1</ele>
        <time>2023-06-21T06:20:33.000Z</time>
      </trkpt>
      <trkpt lat="43.50361" lon="6.38901">
        <ele>188.2</ele>
        <time>2023-06-21T06:20:43.000Z</time>
      </trkpt>
      <trkpt lat="43.50352" lon="6.38904">
        <ele>188.3</ele>
        <time>2023-06-21T06:20:53.000Z</time>
      </trkpt>
      <trkpt lat="43.50343" lon="6.38903">
        <ele>187.9</ele>
        <time>2023-06-21T06:21:03.000Z</time>
      </trkpt>
      <trkpt lat="43.50334" lon="6.38904">
        <ele>188.3</ele>
        <time>2023-06-21T06:21:13.000Z</time>
      </trkpt>
      <trkpt lat="43.50325" lon="6.38911">
        <ele>188</ele>
        <time>2023-06-21T06:21:23.000Z</time>
      </trkpt>
      <trkpt lat="43.50326" lon="6.38927">
        <ele>187.6</ele>
        <time>2023-06-21T06:21:33.000Z</time>
      </trkpt>
      <trkpt lat="43.50322" lon="6.38941">
        <ele>187</ele>
        <time>2023-06-21T06:21:43.000Z</time>
      </trkpt>
      <trkpt lat="43.50324" lon="6.38959">
        <ele>186.3</ele>
        <time>2023-06-21T06:21:53.000Z</time>
      </trkpt>
      <trkpt lat="43.50351" lon="6.38985">
        <ele>186.1</ele>
        <time>2023-06-21T06:22:03.000Z</time>
      </trkpt>
      <trkpt lat="43.50352" lon="6.38996">
        <ele>186.7</ele>
        <time>2023-06-21T06:22:13.000Z</time>
      </trkpt>
      <trkpt lat="43.50347" lon="6.39008">
        <ele>186.4</ele>
        <time>2023-06-21T06:22:23.000Z</time>
      </trkpt>
      <trkpt lat="43.50336" lon="6.39012">
        <ele>185.8</ele>
        <time>2023-06-21T06:22:33.000Z</time>
      </trkpt>
      <trkpt lat="43.5032" lon="6.39004">
        <ele>185.1</ele>
        <time>2023-06-21T06:22:43.000Z</time>
      </trkpt>
      <trkpt lat="43.50306" lon="6.3901">
        <ele>184.9</ele>
        <time>2023-06-21T06:22:53.000Z</time>
      </trkpt>
      <trkpt lat="43.50291" lon="6.39004">
        <ele>184</ele>
        <time>2023-06-21T06:23:03.000Z</time>
      </trkpt>
      <trkpt lat="43.50273" lon="6.38999">
        <ele>183.6</ele>
        <time>2023-06-21T06:23:13.000Z</time>
      </trkpt>
      <trkpt lat="43.50268" lon="6.3902">
        <ele>183.4</ele>
        <time>2023-06-21T06:23:23.000Z</time>
      </trkpt>
      <trkpt lat="43.50271" lon="6.39047">
        <ele>183.4</ele>
        <time>2023-06-21T06:23:33.000Z</time>
      </trkpt>
      <trkpt lat="43.50272" lon="6.39064">
        <ele>183.8</ele>
        <time>2023-06-21T06:23:43.000Z</time>
      </trkpt>
      <trkpt lat="43.50272" lon="6.39084">
        <ele>184.8</ele>
        <time>2023-06-21T06:23:53.000Z</time>
      </trkpt>
      <trkpt lat="43.50263" lon="6.39089">
        <ele>185.7</ele>
        <time>2023-06-21T06:24:03.000Z</time>
      </trkpt>
      <trkpt lat="43.50255" lon="6.39095">
        <ele>185.5</ele>
        <time>2023-06-21T06:24:13.000Z</time>
      </trkpt>
      <trkpt lat="43.50246" lon="6.39101">
        <ele>185.9</ele>
        <time>2023-06-21T06:24:23.000Z</time>
      </trkpt>
      <trkpt lat="43.50239" lon="6.39111">
        <ele>186.1</ele>
        <time>2023-06-21T06:24:33.000Z</time>
      </trkpt>
      <trkpt lat="43.50231" lon="6.39119">
        <ele>186.4</ele>
        <time>2023-06-21T06:24:43.000Z</time>
      </trkpt>
      <trkpt lat="43.50219" lon="6.39123">
        <ele>186.3</ele>
        <time>2023-06-21T06:24:53.000Z</time>
      </trkpt>
      <trkpt lat="43.50211" lon="6.39124">
        <ele>187.1</ele>
        <time>2023-06-21T06:25:03.000Z</time>
      </trkpt>
      <trkpt lat="43.50208" lon="6.39141">
        <ele>187.2</ele>
        <time>2023-06-21T06:25:13.000Z</time>
      </trkpt>
      <trkpt lat="43.50209" lon="6.39161">
        <ele>187.4</ele>
        <time>2023-06-21T06:25:23.000Z</time>
      </trkpt>
      <trkpt lat="43.5021" lon="6.39164">
        <ele>189.7</ele>
        <time>2023-06-21T06:25:33.000Z</time>
      </trkpt>
      <trkpt lat="43.50212" lon="6.39154">
        <ele>189.3</ele>
        <time>2023-06-21T06:25:43.000Z</time>
      </trkpt>
      <trkpt lat="43.50209" lon="6.39149">
        <ele>189.1</ele>
        <time>2023-06-21T06:25:53.000Z</time>
      </trkpt>
      <trkpt lat="43.50215" lon="6.39137">
        <ele>188.2</ele>
        <time>2023-06-21T06:26:03.000Z</time>
      </trkpt>
      <trkpt lat="43.50222" lon="6.39141">
        <ele>188.8</ele>
        <time>2023-06-21T06:26:13.000Z</time>
      </trkpt>
      <trkpt lat="43.50222" lon="6.3914">
        <ele>189.7</ele>
        <time>2023-06-21T06:26:23.000Z</time>
      </trkpt>
      <trkpt lat="43.50217" lon="6.39142">
        <ele>189.3</ele>
        <time>2023-06-21T06:26:33.000Z</time>
      </trkpt>
      <trkpt lat="43.50212" lon="6.39141">
        <ele>189.3</ele>
        <time>2023-06-21T06:26:43.000Z</time>
      </trkpt>
      <trkpt lat="43.50218" lon="6.39156">
        <ele>188.7</ele>
        <time>2023-06-21T06:26:53.000Z</time>
      </trkpt>
      <trkpt lat="43.50224" lon="6.39168">
        <ele>190.1</ele>
        <time>2023-06-21T06:27:03.000Z</time>
      </trkpt>
      <trkpt lat="43.50228" lon="6.39181">
        <ele>191</ele>
        <time>2023-06-21T06:27:13.000Z</time>
      </trkpt>
      <trkpt lat="43.50231" lon="6.39193">
        <ele>192.4</ele>
        <time>2023-06-21T06:27:23.000Z</time>
      </trkpt>
      <trkpt lat="43.50234" lon="6.39204">
        <ele>193.4</ele>
        <time>2023-06-21T06:27:33.000Z</time>
      </trkpt>
      <trkpt lat="43.50241" lon="6.39215">
        <ele>194.3</ele>
        <time>2023-06-21T06:27:43.000Z</time>
      </trkpt>
      <trkpt lat="43.50248" lon="6.39225">
        <ele>195.7</ele>
        <time>2023-06-21T06:27:53.000Z</time>
      </trkpt>
      <trkpt lat="43.50254" lon="6.39234">
        <ele>197.1</ele>
        <time>2023-06-21T06:28:03.000Z</time>
      </trkpt>
      <trkpt lat="43.5026" lon="6.39242">
        <ele>198.4</ele>
        <time>2023-06-21T06:28:13.000Z</time>
      </trkpt>
      <trkpt lat="43.50262" lon="6.39247">
        <ele>198.8</ele>
        <time>2023-06-21T06:28:23.000Z</time>
      </trkpt>
      <trkpt lat="43.50267" lon="6.39257">
        <ele>200.1</ele>
        <time>2023-06-21T06:28:33.000Z</time>
      </trkpt>
      <trkpt lat="43.50273" lon="6.39268">
        <ele>201.7</ele>
        <time>2023-06-21T06:28:43.000Z</time>
      </trkpt>
      <trkpt lat="43.50276" lon="6.39274">
        <ele>202.4</ele>
        <time>2023-06-21T06:28:53.000Z</time>
      </trkpt>
      <trkpt lat="43.5028" lon="6.39286">
        <ele>203.2</ele>
        <time>2023-06-21T06:29:03.000Z</time>
      </trkpt>
      <trkpt lat="43.50284" lon="6.39295">
        <ele>204.7</ele>
        <time>2023-06-21T06:29:13.000Z</time>
      </trkpt>
      <trkpt lat="43.50288" lon="6.39308">
        <ele>205.2</ele>
        <time>2023-06-21T06:29:23.000Z</time>
      </trkpt>
      <trkpt lat="43.50289" lon="6.39328">
        <ele>205.8</ele>
        <time>2023-06-21T06:29:33.000Z</time>
      </trkpt>
      <trkpt lat="43.50284" lon="6.39342">
        <ele>206.6</ele>
        <time>2023-06-21T06:29:43.000Z</time>
      </trkpt>
      <trkpt lat="43.50279" lon="6.39354">
        <ele>206.8</ele>
        <time>2023-06-21T06:29:53.000Z</time>
      </trkpt>
      <trkpt lat="43.50275" lon="6.39365">
        <ele>208.1</ele>
        <time>2023-06-21T06:30:03.000Z</time>
      </trkpt>
      <trkpt lat="43.50274" lon="6.39378">
        <ele>210</ele>
        <time>2023-06-21T06:30:13.000Z</time>
      </trkpt>
      <trkpt lat="43.50276" lon="6.39394">
        <ele>210.8</ele>
        <time>2023-06-21T06:30:23.000Z</time>
      </trkpt>
      <trkpt lat="43.50277" lon="6.39413">
        <ele>212.3</ele>
        <time>2023-06-21T06:30:33.000Z</time>
      </trkpt>
      <trkpt lat="43.5028" lon="6.39424">
        <ele>213.1</ele>
        <time>2023-06-21T06:30:43.000Z</time>
      </trkpt>
      <trkpt lat="43.50283" lon="6.3944">
        <ele>214.2</ele>
        <time>2023-06-21T06:30:53.000Z</time>
      </trkpt>
      <trkpt lat="43.50291" lon="6.39452">
        <ele>214.9</ele>
        <time>2023-06-21T06:31:03.000Z</time>
      </trkpt>
      <trkpt lat="43.50292" lon="6.39459">
        <ele>213.7</ele>
        <time>2023-06-21T06:31:13.000Z</time>
      </trkpt>
      <trkpt lat="43.50299" lon="6.39473">
        <ele>214.8</ele>
        <time>2023-06-21T06:31:23.000Z</time>
      </trkpt>
      <trkpt lat="43.50302" lon="6.39482">
        <ele>214.6</ele>
        <time>2023-06-21T06:31:33.000Z</time>
      </trkpt>
      <trkpt lat="43.50306" lon="6.39495">
        <ele>215.1</ele>
        <time>2023-06-21T06:31:43.000Z</time>
      </trkpt>
      <trkpt lat="43.5031" lon="6.39505">
        <ele>217.8</ele>
        <time>2023-06-21T06:31:53.000Z</time>
      </trkpt>
      <trkpt lat="43.50316" lon="6.39521">
        <ele>218.2</ele>
        <time>2023-06-21T06:32:03.000Z</time>
      </trkpt>
      <trkpt lat="43.50319" lon="6.39532">
        <ele>218.1</ele>
        <time>2023-06-21T06:32:13.000Z</time>
      </trkpt>
      <trkpt lat="43.50319" lon="6.39548">
        <ele>217.9</ele>
        <time>2023-06-21T06:32:23.000Z</time>
      </trkpt>
      <trkpt lat="43.50312" lon="6.39559">
        <ele>217.1</ele>
        <time>2023-06-21T06:32:33.000Z</time>
      </trkpt>
      <trkpt lat="43.50311" lon="6.39573">
        <ele>217.8</ele>
        <time>2023-06-21T06:32:43.000Z</time>
      </trkpt>
      <trkpt lat="43.50308" lon="6.39588">
        <ele>217.7</ele>
        <time>2023-06-21T06:32:53.000Z</time>
      </trkpt>
      <trkpt lat="43.50308" lon="6.39603">
        <ele>219.7</ele>
        <time>2023-06-21T06:33:03.000Z</time>
      </trkpt>
      <trkpt lat="43.50308" lon="6.39616">
        <ele>218.9</ele>
        <time>2023-06-21T06:33:13.000Z</time>
      </trkpt>
      <trkpt lat="43.50309" lon="6.39629">
        <ele>217.4</ele>
        <time>2023-06-21T06:33:23.000Z</time>
      </trkpt>
      <trkpt lat="43.50308" lon="6.39644">
        <ele>215.8</ele>
        <time>2023-06-21T06:33:33.000Z</time>
      </trkpt>
      <trkpt lat="43.50306" lon="6.39654">
        <ele>214.7</ele>
        <time>2023-06-21T06:33:43.000Z</time>
      </trkpt>
      <trkpt lat="43.50306" lon="6.39662">
        <ele>213.1</ele>
        <time>2023-06-21T06:33:53.000Z</time>
      </trkpt>
      <trkpt lat="43.50304" lon="6.3967">
        <ele>211.6</ele>
        <time>2023-06-21T06:34:03.000Z</time>
      </trkpt>
      <trkpt lat="43.50301" lon="6.39679">
        <ele>209.6</ele>
        <time>2023-06-21T06:34:13.000Z</time>
      </trkpt>
      <trkpt lat="43.50298" lon="6.39693">
        <ele>207.9</ele>
        <time>2023-06-21T06:34:23.000Z</time>
      </trkpt>
      <trkpt lat="43.503" lon="6.39703">
        <ele>207.2</ele>
        <time>2023-06-21T06:34:33.000Z</time>
      </trkpt>
      <trkpt lat="43.50305" lon="6.39717">
        <ele>206.5</ele>
        <time>2023-06-21T06:34:43.000Z</time>
      </trkpt>
      <trkpt lat="43.50309" lon="6.39731">
        <ele>205.7</ele>
        <time>2023-06-21T06:34:53.000Z</time>
      </trkpt>
      <trkpt lat="43.50304" lon="6.39738">
        <ele>206.2</ele>
        <time>2023-06-21T06:35:03.000Z</time>
      </trkpt>
      <trkpt lat="43.50295" lon="6.3975">
        <ele>207.4</ele>
        <time>2023-06-21T06:35:13.000Z</time>
      </trkpt>
      <trkpt lat="43.50295" lon="6.39767">
        <ele>207.7</ele>
        <time>2023-06-21T06:35:23.000Z</time>
      </trkpt>
      <trkpt lat="43.50295" lon="6.39781">
        <ele>205.3</ele>
        <time>2023-06-21T06:35:33.000Z</time>
      </trkpt>
      <trkpt lat="43.50291" lon="6.39794">
        <ele>208</ele>
        <time>2023-06-21T06:35:43.000Z</time>
      </trkpt>
      <trkpt lat="43.50291" lon="6.3981">
        <ele>207.8</ele>
        <time>2023-06-21T06:35:53.000Z</time>
      </trkpt>
      <trkpt lat="43.50285" lon="6.39813">
        <ele>207.1</ele>
        <time>2023-06-21T06:36:03.000Z</time>
      </trkpt>
      <trkpt lat="43.50282" lon="6.39823">
        <ele>205.9</ele>
        <time>2023-06-21T06:36:13.000Z</time>
      </trkpt>
      <trkpt lat="43.50285" lon="6.39833">
        <ele>204.7</ele>
        <time>2023-06-21T06:36:23.000Z</time>
      </trkpt>
      <trkpt lat="43.50283" lon="6.39842">
        <ele>203.9</ele>
        <time>2023-06-21T06:36:33.000Z</time>
      </trkpt>
      <trkpt lat="43.5028" lon="6.39846">
        <ele>202.7</ele>
        <time>2023-06-21T06:36:43.000Z</time>
      </trkpt>
      <trkpt lat="43.50279" lon="6.39856">
        <ele>201</ele>
        <time>2023-06-21T06:36:53.000Z</time>
      </trkpt>
      <trkpt lat="43.50275" lon="6.39856">
        <ele>198.9</ele>
        <time>2023-06-21T06:37:03.000Z</time>
      </trkpt>
      <trkpt lat="43.50271" lon="6.39861">
        <ele>197.5</ele>
        <time>2023-06-21T06:37:13.000Z</time>
      </trkpt>
      <trkpt lat="43.50262" lon="6.39865">
        <ele>195.7</ele>
        <time>2023-06-21T06:37:23.000Z</time>
      </trkpt>
      <trkpt lat="43.50263" lon="6.39872">
        <ele>194.2</ele>
        <time>2023-06-21T06:37:33.000Z</time>
      </trkpt>
      <trkpt lat="43.50264" lon="6.39882">
        <ele>193.3</ele>
        <time>2023-06-21T06:37:43.000Z</time>
      </trkpt>
      <trkpt lat="43.50263" lon="6.39892">
        <ele>191.4</ele>
        <time>2023-06-21T06:37:53.000Z</time>
      </trkpt>
      <trkpt lat="43.50259" lon="6.39902">
        <ele>189.3</ele>
        <time>2023-06-21T06:38:03.000Z</time>
      </trkpt>
      <trkpt lat="43.50254" lon="6.39909">
        <ele>187.6</ele>
        <time>2023-06-21T06:38:15.000Z</time>
      </trkpt>
      <trkpt lat="43.50251" lon="6.39919">
        <ele>186.1</ele>
        <time>2023-06-21T06:38:25.000Z</time>
      </trkpt>
      <trkpt lat="43.50247" lon="6.39927">
        <ele>185</ele>
        <time>2023-06-21T06:38:35.000Z</time>
      </trkpt>
      <trkpt lat="43.50243" lon="6.39933">
        <ele>183.6</ele>
        <time>2023-06-21T06:38:45.000Z</time>
      </trkpt>
      <trkpt lat="43.50244" lon="6.39939">
        <ele>182.2</ele>
        <time>2023-06-21T06:38:55.000Z</time>
      </trkpt>
      <trkpt lat="43.50244" lon="6.39942">
        <ele>180.4</ele>
        <time>2023-06-21T06:39:05.000Z</time>
      </trkpt>
      <trkpt lat="43.50242" lon="6.39943">
        <ele>179.4</ele>
        <time>2023-06-21T06:39:15.000Z</time>
      </trkpt>
      <trkpt lat="43.5024" lon="6.39945">
        <ele>178.5</ele>
        <time>2023-06-21T06:39:25.000Z</time>
      </trkpt>
      <trkpt lat="43.50237" lon="6.39946">
        <ele>177.3</ele>
        <time>2023-06-21T06:39:35.000Z</time>
      </trkpt>
      <trkpt lat="43.50235" lon="6.39948">
        <ele>176.6</ele>
        <time>2023-06-21T06:39:45.000Z</time>
      </trkpt>
      <trkpt lat="43.50233" lon="6.39952">
        <ele>176</ele>
        <time>2023-06-21T06:39:55.000Z</time>
      </trkpt>
      <trkpt lat="43.50235" lon="6.39955">
        <ele>175.1</ele>
        <time>2023-06-21T06:40:05.000Z</time>
      </trkpt>
      <trkpt lat="43.50241" lon="6.39959">
        <ele>173.7</ele>
        <time>2023-06-21T06:40:15.000Z</time>
      </trkpt>
      <trkpt lat="43.50247" lon="6.39959">
        <ele>171.8</ele>
        <time>2023-06-21T06:40:25.000Z</time>
      </trkpt>
      <trkpt lat="43.50249" lon="6.39968">
        <ele>170.1</ele>
        <time>2023-06-21T06:40:35.000Z</time>
      </trkpt>
      <trkpt lat="43.50247" lon="6.39976">
        <ele>168.3</ele>
        <time>2023-06-21T06:40:45.000Z</time>
      </trkpt>
      <trkpt lat="43.5025" lon="6.39983">
        <ele>166.7</ele>
        <time>2023-06-21T06:40:55.000Z</time>
      </trkpt>
      <trkpt lat="43.50252" lon="6.39987">
        <ele>164.9</ele>
        <time>2023-06-21T06:41:05.000Z</time>
      </trkpt>
      <trkpt lat="43.50259" lon="6.3999">
        <ele>163.4</ele>
        <time>2023-06-21T06:41:15.000Z</time>
      </trkpt>
      <trkpt lat="43.5026" lon="6.39996">
        <ele>161.8</ele>
        <time>2023-06-21T06:41:25.000Z</time>
      </trkpt>
      <trkpt lat="43.50261" lon="6.40003">
        <ele>159.8</ele>
        <time>2023-06-21T06:41:35.000Z</time>
      </trkpt>
      <trkpt lat="43.50258" lon="6.40011">
        <ele>158.1</ele>
        <time>2023-06-21T06:41:45.000Z</time>
      </trkpt>
      <trkpt lat="43.50252" lon="6.40021">
        <ele>156.4</ele>
        <time>2023-06-21T06:41:55.000Z</time>
      </trkpt>
      <trkpt lat="43.5025" lon="6.40031">
        <ele>154.9</ele>
        <time>2023-06-21T06:42:05.000Z</time>
      </trkpt>
      <trkpt lat="43.50251" lon="6.40035">
        <ele>153.2</ele>
        <time>2023-06-21T06:42:15.000Z</time>
      </trkpt>
      <trkpt lat="43.50251" lon="6.40035">
        <ele>152.8</ele>
        <time>2023-06-21T06:42:25.000Z</time>
      </trkpt>
      <trkpt lat="43.50263" lon="6.40037">
        <ele>152.9</ele>
        <time>2023-06-21T06:42:36.000Z</time>
      </trkpt>
      <trkpt lat="43.50272" lon="6.40035">
        <ele>152.9</ele>
        <time>2023-06-21T06:42:46.000Z</time>
      </trkpt>
      <trkpt lat="43.50272" lon="6.40033">
        <ele>152.5</ele>
        <time>2023-06-21T06:42:56.000Z</time>
      </trkpt>
      <trkpt lat="43.50273" lon="6.40033">
        <ele>152.6</ele>
        <time>2023-06-21T06:43:06.000Z</time>
      </trkpt>
      <trkpt lat="43.50275" lon="6.40031">
        <ele>152.5</ele>
        <time>2023-06-21T06:43:16.000Z</time>
      </trkpt>
      <trkpt lat="43.50278" lon="6.40031">
        <ele>151.5</ele>
        <time>2023-06-21T06:43:26.000Z</time>
      </trkpt>
      <trkpt lat="43.50286" lon="6.40033">
        <ele>151.7</ele>
        <time>2023-06-21T06:43:36.000Z</time>
      </trkpt>
      <trkpt lat="43.50285" lon="6.40035">
        <ele>150.3</ele>
        <time>2023-06-21T06:43:46.000Z</time>
      </trkpt>
      <trkpt lat="43.50282" lon="6.40034">
        <ele>150.4</ele>
        <time>2023-06-21T06:43:56.000Z</time>
      </trkpt>
      <trkpt lat="43.5028" lon="6.40031">
        <ele>150</ele>
        <time>2023-06-21T06:44:06.000Z</time>
      </trkpt>
      <trkpt lat="43.50278" lon="6.4003">
        <ele>149.9</ele>
        <time>2023-06-21T06:44:16.000Z</time>
      </trkpt>
      <trkpt lat="43.50278" lon="6.40028">
        <ele>149.7</ele>
        <time>2023-06-21T06:44:26.000Z</time>
      </trkpt>
      <trkpt lat="43.50276" lon="6.40032">
        <ele>148.6</ele>
        <time>2023-06-21T06:44:36.000Z</time>
      </trkpt>
      <trkpt lat="43.50275" lon="6.40032">
        <ele>148.4</ele>
        <time>2023-06-21T06:44:46.000Z</time>
      </trkpt>
      <trkpt lat="43.50275" lon="6.4003">
        <ele>148</ele>
        <time>2023-06-21T06:44:56.000Z</time>
      </trkpt>
      <trkpt lat="43.50268" lon="6.40033">
        <ele>146.5</ele>
        <time>2023-06-21T06:45:06.000Z</time>
      </trkpt>
      <trkpt lat="43.50262" lon="6.40035">
        <ele>145.4</ele>
        <time>2023-06-21T06:45:16.000Z</time>
      </trkpt>
      <trkpt lat="43.50256" lon="6.40042">
        <ele>140.9</ele>
        <time>2023-06-21T06:45:26.000Z</time>
      </trkpt>
      <trkpt lat="43.50256" lon="6.40051">
        <ele>141.9</ele>
        <time>2023-06-21T06:45:36.000Z</time>
      </trkpt>
      <trkpt lat="43.5026" lon="6.40058">
        <ele>140.5</ele>
        <time>2023-06-21T06:45:46.000Z</time>
      </trkpt>
      <trkpt lat="43.50263" lon="6.40066">
        <ele>141.8</ele>
        <time>2023-06-21T06:45:56.000Z</time>
      </trkpt>
      <trkpt lat="43.50263" lon="6.40069">
        <ele>141.9</ele>
        <time>2023-06-21T06:46:06.000Z</time>
      </trkpt>
      <trkpt lat="43.50264" lon="6.40072">
        <ele>141.5</ele>
        <time>2023-06-21T06:46:16.000Z</time>
      </trkpt>
      <trkpt lat="43.50264" lon="6.40074">
        <ele>141.3</ele>
        <time>2023-06-21T06:46:26.000Z</time>
      </trkpt>
      <trkpt lat="43.50265" lon="6.40077">
        <ele>141.2</ele>
        <time>2023-06-21T06:46:36.000Z</time>
      </trkpt>
      <trkpt lat="43.50265" lon="6.40077">
        <ele>141.4</ele>
        <time>2023-06-21T06:46:46.000Z</time>
      </trkpt>
      <trkpt lat="43.50267" lon="6.40077">
        <ele>141.4</ele>
        <time>2023-06-21T06:46:56.000Z</time>
      </trkpt>
      <trkpt lat="43.50266" lon="6.40078">
        <ele>141.2</ele>
        <time>2023-06-21T06:47:06.000Z</time>
      </trkpt>
      <trkpt lat="43.50266" lon="6.40077">
        <ele>141.2</ele>
        <time>2023-06-21T06:47:16.000Z</time>
      </trkpt>
      <trkpt lat="43.50272" lon="6.4008">
        <ele>140.4</ele>
        <time>2023-06-21T06:47:26.000Z</time>
      </trkpt>
      <trkpt lat="43.50279" lon="6.40088">
        <ele>139.9</ele>
        <time>2023-06-21T06:47:36.000Z</time>
      </trkpt>
      <trkpt lat="43.50283" lon="6.40094">
        <ele>139.5</ele>
        <time>2023-06-21T06:47:46.000Z</time>
      </trkpt>
      <trkpt lat="43.50288" lon="6.40102">
        <ele>141.7</ele>
        <time>2023-06-21T06:47:56.000Z</time>
      </trkpt>
      <trkpt lat="43.50292" lon="6.40112">
        <ele>140.8</ele>
        <time>2023-06-21T06:48:06.000Z</time>
      </trkpt>
      <trkpt lat="43.50291" lon="6.40111">
        <ele>141.4</ele>
        <time>2023-06-21T06:48:16.000Z</time>
      </trkpt>
      <trkpt lat="43.50294" lon="6.40107">
        <ele>137</ele>
        <time>2023-06-21T06:48:30.000Z</time>
      </trkpt>
      <trkpt lat="43.50291" lon="6.40113">
        <ele>142.9</ele>
        <time>2023-06-21T06:48:40.000Z</time>
      </trkpt>
      <trkpt lat="43.50286" lon="6.40115">
        <ele>144.7</ele>
        <time>2023-06-21T06:48:50.000Z</time>
      </trkpt>
      <trkpt lat="43.50282" lon="6.40121">
        <ele>145.7</ele>
        <time>2023-06-21T06:49:00.000Z</time>
      </trkpt>
      <trkpt lat="43.50285" lon="6.40129">
        <ele>146.5</ele>
        <time>2023-06-21T06:49:10.000Z</time>
      </trkpt>
      <trkpt lat="43.50287" lon="6.40128">
        <ele>146.5</ele>
        <time>2023-06-21T06:49:20.000Z</time>
      </trkpt>
      <trkpt lat="43.50286" lon="6.40131">
        <ele>146.5</ele>
        <time>2023-06-21T06:49:30.000Z</time>
      </trkpt>
      <trkpt lat="43.5029" lon="6.40139">
        <ele>146.8</ele>
        <time>2023-06-21T06:49:40.000Z</time>
      </trkpt>
      <trkpt lat="43.50293" lon="6.40149">
        <ele>146.6</ele>
        <time>2023-06-21T06:49:50.000Z</time>
      </trkpt>
      <trkpt lat="43.50295" lon="6.40156">
        <ele>147.4</ele>
        <time>2023-06-21T06:50:00.000Z</time>
      </trkpt>
      <trkpt lat="43.50297" lon="6.40164">
        <ele>148.1</ele>
        <time>2023-06-21T06:50:10.000Z</time>
      </trkpt>
      <trkpt lat="43.50299" lon="6.4017">
        <ele>146.7</ele>
        <time>2023-06-21T06:50:20.000Z</time>
      </trkpt>
      <trkpt lat="43.503" lon="6.40179">
        <ele>148.8</ele>
        <time>2023-06-21T06:50:30.000Z</time>
      </trkpt>
      <trkpt lat="43.50302" lon="6.40189">
        <ele>150.3</ele>
        <time>2023-06-21T06:50:40.000Z</time>
      </trkpt>
      <trkpt lat="43.50305" lon="6.402">
        <ele>150.3</ele>
        <time>2023-06-21T06:50:50.000Z</time>
      </trkpt>
      <trkpt lat="43.50305" lon="6.40212">
        <ele>151</ele>
        <time>2023-06-21T06:51:00.000Z</time>
      </trkpt>
      <trkpt lat="43.50306" lon="6.40225">
        <ele>152.4</ele>
        <time>2023-06-21T06:51:10.000Z</time>
      </trkpt>
      <trkpt lat="43.50304" lon="6.40237">
        <ele>153.8</ele>
        <time>2023-06-21T06:51:20.000Z</time>
      </trkpt>
      <trkpt lat="43.50302" lon="6.40246">
        <ele>154.5</ele>
        <time>2023-06-21T06:51:30.000Z</time>
      </trkpt>
      <trkpt lat="43.50299" lon="6.40256">
        <ele>155</ele>
        <time>2023-06-21T06:51:40.000Z</time>
      </trkpt>
      <trkpt lat="43.50297" lon="6.40266">
        <ele>156.3</ele>
        <time>2023-06-21T06:51:50.000Z</time>
      </trkpt>
      <trkpt lat="43.50292" lon="6.40276">
        <ele>157.3</ele>
        <time>2023-06-21T06:52:00.000Z</time>
      </trkpt>
      <trkpt lat="43.5029" lon="6.40287">
        <ele>157.7</ele>
        <time>2023-06-21T06:52:10.000Z</time>
      </trkpt>
      <trkpt lat="43.50287" lon="6.40297">
        <ele>157.7</ele>
        <time>2023-06-21T06:52:20.000Z</time>
      </trkpt>
      <trkpt lat="43.50287" lon="6.40309">
        <ele>159.5</ele>
        <time>2023-06-21T06:52:30.000Z</time>
      </trkpt>
      <trkpt lat="43.5029" lon="6.40326">
        <ele>160.3</ele>
        <time>2023-06-21T06:52:40.000Z</time>
      </trkpt>
      <trkpt lat="43.50293" lon="6.40339">
        <ele>162.1</ele>
        <time>2023-06-21T06:52:50.000Z</time>
      </trkpt>
      <trkpt lat="43.50299" lon="6.40348">
        <ele>163.2</ele>
        <time>2023-06-21T06:53:00.000Z</time>
      </trkpt>
      <trkpt lat="43.50301" lon="6.40361">
        <ele>163.4</ele>
        <time>2023-06-21T06:53:10.000Z</time>
      </trkpt>
      <trkpt lat="43.50303" lon="6.40374">
        <ele>165.2</ele>
        <time>2023-06-21T06:53:20.000Z</time>
      </trkpt>
      <trkpt lat="43.50301" lon="6.40384">
        <ele>165.7</ele>
        <time>2023-06-21T06:53:30.000Z</time>
      </trkpt>
      <trkpt lat="43.50297" lon="6.40393">
        <ele>165.4</ele>
        <time>2023-06-21T06:53:40.000Z</time>
      </trkpt>
      <trkpt lat="43.50297" lon="6.40402">
        <ele>167.3</ele>
        <time>2023-06-21T06:53:50.000Z</time>
      </trkpt>
      <trkpt lat="43.503" lon="6.40416">
        <ele>168.9</ele>
        <time>2023-06-21T06:54:00.000Z</time>
      </trkpt>
      <trkpt lat="43.50304" lon="6.40428">
        <ele>169.3</ele>
        <time>2023-06-21T06:54:10.000Z</time>
      </trkpt>
      <trkpt lat="43.50307" lon="6.40441">
        <ele>170.4</ele>
        <time>2023-06-21T06:54:20.000Z</time>
      </trkpt>
      <trkpt lat="43.5031" lon="6.40455">
        <ele>171</ele>
        <time>2023-06-21T06:54:30.000Z</time>
      </trkpt>
      <trkpt lat="43.50316" lon="6.40468">
        <ele>171.7</ele>
        <time>2023-06-21T06:54:40.000Z</time>
      </trkpt>
      <trkpt lat="43.50324" lon="6.40479">
        <ele>172.6</ele>
        <time>2023-06-21T06:54:50.000Z</time>
      </trkpt>
      <trkpt lat="43.50328" lon="6.40496">
        <ele>172</ele>
        <time>2023-06-21T06:55:00.000Z</time>
      </trkpt>
      <trkpt lat="43.50331" lon="6.40512">
        <ele>171.8</ele>
        <time>2023-06-21T06:55:10.000Z</time>
      </trkpt>
      <trkpt lat="43.50329" lon="6.40525">
        <ele>170.8</ele>
        <time>2023-06-21T06:55:20.000Z</time>
      </trkpt>
      <trkpt lat="43.50324" lon="6.40541">
        <ele>170.3</ele>
        <time>2023-06-21T06:55:30.000Z</time>
      </trkpt>
      <trkpt lat="43.50321" lon="6.4055">
        <ele>170</ele>
        <time>2023-06-21T06:55:40.000Z</time>
      </trkpt>
      <trkpt lat="43.50323" lon="6.40556">
        <ele>169.8</ele>
        <time>2023-06-21T06:55:50.000Z</time>
      </trkpt>
      <trkpt lat="43.50326" lon="6.40561">
        <ele>169.2</ele>
        <time>2023-06-21T06:56:00.000Z</time>
      </trkpt>
      <trkpt lat="43.50328" lon="6.4056">
        <ele>169.9</ele>
        <time>2023-06-21T06:56:10.000Z</time>
      </trkpt>
      <trkpt lat="43.50331" lon="6.40566">
        <ele>169</ele>
        <time>2023-06-21T06:56:20.000Z</time>
      </trkpt>
      <trkpt lat="43.50342" lon="6.4057">
        <ele>169.8</ele>
        <time>2023-06-21T06:56:30.000Z</time>
      </trkpt>
      <trkpt lat="43.50352" lon="6.40571">
        <ele>170.3</ele>
        <time>2023-06-21T06:56:40.000Z</time>
      </trkpt>
      <trkpt lat="43.50364" lon="6.40574">
        <ele>170.8</ele>
        <time>2023-06-21T06:56:50.000Z</time>
      </trkpt>
      <trkpt lat="43.50374" lon="6.40572">
        <ele>177.5</ele>
        <time>2023-06-21T06:57:00.000Z</time>
      </trkpt>
      <trkpt lat="43.50383" lon="6.40576">
        <ele>172.3</ele>
        <time>2023-06-21T06:57:10.000Z</time>
      </trkpt>
      <trkpt lat="43.50395" lon="6.40581">
        <ele>172.1</ele>
        <time>2023-06-21T06:57:20.000Z</time>
      </trkpt>
      <trkpt lat="43.50403" lon="6.40585">
        <ele>172</ele>
        <time>2023-06-21T06:57:30.000Z</time>
      </trkpt>
      <trkpt lat="43.50415" lon="6.40592">
        <ele>172</ele>
        <time>2023-06-21T06:57:41.000Z</time>
      </trkpt>
      <trkpt lat="43.50426" lon="6.40597">
        <ele>172.9</ele>
        <time>2023-06-21T06:57:51.000Z</time>
      </trkpt>
      <trkpt lat="43.50438" lon="6.40602">
        <ele>173.3</ele>
        <time>2023-06-21T06:58:01.000Z</time>
      </trkpt>
      <trkpt lat="43.50443" lon="6.40606">
        <ele>174.2</ele>
        <time>2023-06-21T06:58:11.000Z</time>
      </trkpt>
      <trkpt lat="43.5045" lon="6.40615">
        <ele>174.6</ele>
        <time>2023-06-21T06:58:21.000Z</time>
      </trkpt>
      <trkpt lat="43.50452" lon="6.40624">
        <ele>175.6</ele>
        <time>2023-06-21T06:58:31.000Z</time>
      </trkpt>
      <trkpt lat="43.50457" lon="6.40633">
        <ele>176.9</ele>
        <time>2023-06-21T06:58:41.000Z</time>
      </trkpt>
      <trkpt lat="43.5046" lon="6.40638">
        <ele>176.7</ele>
        <time>2023-06-21T06:58:51.000Z</time>
      </trkpt>
      <trkpt lat="43.50464" lon="6.40649">
        <ele>177.9</ele>
        <time>2023-06-21T06:59:01.000Z</time>
      </trkpt>
      <trkpt lat="43.50468" lon="6.4066">
        <ele>178.9</ele>
        <time>2023-06-21T06:59:11.000Z</time>
      </trkpt>
      <trkpt lat="43.50472" lon="6.40673">
        <ele>178.5</ele>
        <time>2023-06-21T06:59:21.000Z</time>
      </trkpt>
      <trkpt lat="43.50478" lon="6.40689">
        <ele>178.9</ele>
        <time>2023-06-21T06:59:31.000Z</time>
      </trkpt>
      <trkpt lat="43.50489" lon="6.40698">
        <ele>179</ele>
        <time>2023-06-21T06:59:41.000Z</time>
      </trkpt>
      <trkpt lat="43.50497" lon="6.40709">
        <ele>179</ele>
        <time>2023-06-21T06:59:51.000Z</time>
      </trkpt>
      <trkpt lat="43.50506" lon="6.40721">
        <ele>178.8</ele>
        <time>2023-06-21T07:00:01.000Z</time>
      </trkpt>
      <trkpt lat="43.50513" lon="6.40728">
        <ele>179.2</ele>
        <time>2023-06-21T07:00:11.000Z</time>
      </trkpt>
      <trkpt lat="43.50524" lon="6.40735">
        <ele>179.2</ele>
        <time>2023-06-21T07:00:21.000Z</time>
      </trkpt>
      <trkpt lat="43.50531" lon="6.40745">
        <ele>179.6</ele>
        <time>2023-06-21T07:00:31.000Z</time>
      </trkpt>
      <trkpt lat="43.50538" lon="6.40757">
        <ele>181</ele>
        <time>2023-06-21T07:00:41.000Z</time>
      </trkpt>
      <trkpt lat="43.50545" lon="6.40769">
        <ele>180.9</ele>
        <time>2023-06-21T07:00:51.000Z</time>
      </trkpt>
      <trkpt lat="43.50549" lon="6.40784">
        <ele>180.7</ele>
        <time>2023-06-21T07:01:01.000Z</time>
      </trkpt>
      <trkpt lat="43.50552" lon="6.408">
        <ele>180.6</ele>
        <time>2023-06-21T07:01:11.000Z</time>
      </trkpt>
      <trkpt lat="43.50556" lon="6.40814">
        <ele>180.9</ele>
        <time>2023-06-21T07:01:21.000Z</time>
      </trkpt>
      <trkpt lat="43.50562" lon="6.40825">
        <ele>181</ele>
        <time>2023-06-21T07:01:31.000Z</time>
      </trkpt>
      <trkpt lat="43.50565" lon="6.40837">
        <ele>181.2</ele>
        <time>2023-06-21T07:01:41.000Z</time>
      </trkpt>
      <trkpt lat="43.5057" lon="6.40845">
        <ele>181.1</ele>
        <time>2023-06-21T07:01:51.000Z</time>
      </trkpt>
      <trkpt lat="43.50575" lon="6.40855">
        <ele>182.2</ele>
        <time>2023-06-21T07:02:01.000Z</time>
      </trkpt>
      <trkpt lat="43.50576" lon="6.40866">
        <ele>182.3</ele>
        <time>2023-06-21T07:02:11.000Z</time>
      </trkpt>
      <trkpt lat="43.50575" lon="6.40883">
        <ele>183.1</ele>
        <time>2023-06-21T07:02:21.000Z</time>
      </trkpt>
      <trkpt lat="43.50573" lon="6.40897">
        <ele>184</ele>
        <time>2023-06-21T07:02:31.000Z</time>
      </trkpt>
      <trkpt lat="43.50573" lon="6.40909">
        <ele>185</ele>
        <time>2023-06-21T07:02:41.000Z</time>
      </trkpt>
      <trkpt lat="43.50569" lon="6.40924">
        <ele>185.5</ele>
        <time>2023-06-21T07:02:51.000Z</time>
      </trkpt>
      <trkpt lat="43.50569" lon="6.40934">
        <ele>185.6</ele>
        <time>2023-06-21T07:03:01.000Z</time>
      </trkpt>
      <trkpt lat="43.50571" lon="6.40948">
        <ele>185.4</ele>
        <time>2023-06-21T07:03:11.000Z</time>
      </trkpt>
      <trkpt lat="43.50575" lon="6.40965">
        <ele>185.8</ele>
        <time>2023-06-21T07:03:21.000Z</time>
      </trkpt>
      <trkpt lat="43.50576" lon="6.40981">
        <ele>185.4</ele>
        <time>2023-06-21T07:03:31.000Z</time>
      </trkpt>
      <trkpt lat="43.50575" lon="6.40995">
        <ele>185.7</ele>
        <time>2023-06-21T07:03:41.000Z</time>
      </trkpt>
      <trkpt lat="43.50572" lon="6.41008">
        <ele>186</ele>
        <time>2023-06-21T07:03:51.000Z</time>
      </trkpt>
      <trkpt lat="43.50565" lon="6.4102">
        <ele>186.4</ele>
        <time>2023-06-21T07:04:01.000Z</time>
      </trkpt>
      <trkpt lat="43.50565" lon="6.41029">
        <ele>186.3</ele>
        <time>2023-06-21T07:04:11.000Z</time>
      </trkpt>
      <trkpt lat="43.5056" lon="6.41038">
        <ele>187.5</ele>
        <time>2023-06-21T07:04:21.000Z</time>
      </trkpt>
      <trkpt lat="43.50556" lon="6.41048">
        <ele>188.3</ele>
        <time>2023-06-21T07:04:31.000Z</time>
      </trkpt>
      <trkpt lat="43.50554" lon="6.41061">
        <ele>189.5</ele>
        <time>2023-06-21T07:04:41.000Z</time>
      </trkpt>
      <trkpt lat="43.50553" lon="6.41074">
        <ele>189.5</ele>
        <time>2023-06-21T07:04:51.000Z</time>
      </trkpt>
      <trkpt lat="43.5055" lon="6.41087">
        <ele>189.8</ele>
        <time>2023-06-21T07:05:01.000Z</time>
      </trkpt>
      <trkpt lat="43.5055" lon="6.41097">
        <ele>191</ele>
        <time>2023-06-21T07:05:11.000Z</time>
      </trkpt>
      <trkpt lat="43.50548" lon="6.41105">
        <ele>191.5</ele>
        <time>2023-06-21T07:05:21.000Z</time>
      </trkpt>
      <trkpt lat="43.50546" lon="6.41119">
        <ele>192</ele>
        <time>2023-06-21T07:05:31.000Z</time>
      </trkpt>
      <trkpt lat="43.50544" lon="6.41132">
        <ele>192.5</ele>
        <time>2023-06-21T07:05:41.000Z</time>
      </trkpt>
      <trkpt lat="43.50545" lon="6.41143">
        <ele>193</ele>
        <time>2023-06-21T07:05:51.000Z</time>
      </trkpt>
      <trkpt lat="43.50538" lon="6.41159">
        <ele>192.3</ele>
        <time>2023-06-21T07:06:01.000Z</time>
      </trkpt>
      <trkpt lat="43.50536" lon="6.41171">
        <ele>193.7</ele>
        <time>2023-06-21T07:06:11.000Z</time>
      </trkpt>
      <trkpt lat="43.50532" lon="6.41181">
        <ele>193.9</ele>
        <time>2023-06-21T07:06:21.000Z</time>
      </trkpt>
      <trkpt lat="43.5053" lon="6.41191">
        <ele>194.9</ele>
        <time>2023-06-21T07:06:31.000Z</time>
      </trkpt>
      <trkpt lat="43.50528" lon="6.41197">
        <ele>195.5</ele>
        <time>2023-06-21T07:06:41.000Z</time>
      </trkpt>
      <trkpt lat="43.50523" lon="6.41205">
        <ele>195</ele>
        <time>2023-06-21T07:06:51.000Z</time>
      </trkpt>
      <trkpt lat="43.5052" lon="6.41214">
        <ele>196.4</ele>
        <time>2023-06-21T07:07:01.000Z</time>
      </trkpt>
      <trkpt lat="43.50513" lon="6.41222">
        <ele>198.9</ele>
        <time>2023-06-21T07:07:11.000Z</time>
      </trkpt>
      <trkpt lat="43.50504" lon="6.41234">
        <ele>198.7</ele>
        <time>2023-06-21T07:07:21.000Z</time>
      </trkpt>
      <trkpt lat="43.505" lon="6.41245">
        <ele>200.3</ele>
        <time>2023-06-21T07:07:31.000Z</time>
      </trkpt>
      <trkpt lat="43.50495" lon="6.41255">
        <ele>200.4</ele>
        <time>2023-06-21T07:07:41.000Z</time>
      </trkpt>
      <trkpt lat="43.5049" lon="6.4127">
        <ele>202.7</ele>
        <time>2023-06-21T07:07:51.000Z</time>
      </trkpt>
      <trkpt lat="43.50487" lon="6.41284">
        <ele>202.9</ele>
        <time>2023-06-21T07:08:01.000Z</time>
      </trkpt>
      <trkpt lat="43.50483" lon="6.41297">
        <ele>203.3</ele>
        <time>2023-06-21T07:08:11.000Z</time>
      </trkpt>
      <trkpt lat="43.50481" lon="6.4131">
        <ele>204</ele>
        <time>2023-06-21T07:08:21.000Z</time>
      </trkpt>
      <trkpt lat="43.50481" lon="6.41324">
        <ele>205.7</ele>
        <time>2023-06-21T07:08:31.000Z</time>
      </trkpt>
      <trkpt lat="43.50484" lon="6.41331">
        <ele>206.1</ele>
        <time>2023-06-21T07:08:41.000Z</time>
      </trkpt>
      <trkpt lat="43.50486" lon="6.41331">
        <ele>206.7</ele>
        <time>2023-06-21T07:08:51.000Z</time>
      </trkpt>
      <trkpt lat="43.50486" lon="6.41332">
        <ele>206.8</ele>
        <time>2023-06-21T07:09:01.000Z</time>
      </trkpt>
      <trkpt lat="43.50487" lon="6.41334">
        <ele>206.8</ele>
        <time>2023-06-21T07:09:11.000Z</time>
      </trkpt>
      <trkpt lat="43.50487" lon="6.41332">
        <ele>206.7</ele>
        <time>2023-06-21T07:09:21.000Z</time>
      </trkpt>
      <trkpt lat="43.50486" lon="6.41327">
        <ele>206.9</ele>
        <time>2023-06-21T07:09:31.000Z</time>
      </trkpt>
      <trkpt lat="43.50483" lon="6.41325">
        <ele>206.9</ele>
        <time>2023-06-21T07:09:41.000Z</time>
      </trkpt>
      <trkpt lat="43.50482" lon="6.41329">
        <ele>207</ele>
        <time>2023-06-21T07:09:51.000Z</time>
      </trkpt>
      <trkpt lat="43.50483" lon="6.4133">
        <ele>207</ele>
        <time>2023-06-21T07:10:01.000Z</time>
      </trkpt>
      <trkpt lat="43.50484" lon="6.41328">
        <ele>207.1</ele>
        <time>2023-06-21T07:10:11.000Z</time>
      </trkpt>
      <trkpt lat="43.50483" lon="6.41327">
        <ele>207.2</ele>
        <time>2023-06-21T07:10:21.000Z</time>
      </trkpt>
      <trkpt lat="43.50484" lon="6.41325">
        <ele>207.6</ele>
        <time>2023-06-21T07:10:31.000Z</time>
      </trkpt>
      <trkpt lat="43.50484" lon="6.41326">
        <ele>207.6</ele>
        <time>2023-06-21T07:10:41.000Z</time>
      </trkpt>
      <trkpt lat="43.50485" lon="6.41328">
        <ele>207.6</ele>
        <time>2023-06-21T07:10:51.000Z</time>
      </trkpt>
      <trkpt lat="43.50486" lon="6.41328">
        <ele>207.9</ele>
        <time>2023-06-21T07:11:01.000Z</time>
      </trkpt>
      <trkpt lat="43.50486" lon="6.41327">
        <ele>207.9</ele>
        <time>2023-06-21T07:11:11.000Z</time>
      </trkpt>
      <trkpt lat="43.50486" lon="6.41326">
        <ele>208</ele>
        <time>2023-06-21T07:11:21.000Z</time>
      </trkpt>
      <trkpt lat="43.50486" lon="6.41324">
        <ele>208.1</ele>
        <time>2023-06-21T07:11:31.000Z</time>
      </trkpt>
      <trkpt lat="43.50486" lon="6.41323">
        <ele>208.2</ele>
        <time>2023-06-21T07:11:41.000Z</time>
      </trkpt>
      <trkpt lat="43.50488" lon="6.41323">
        <ele>208.3</ele>
        <time>2023-06-21T07:11:51.000Z</time>
      </trkpt>
      <trkpt lat="43.50487" lon="6.41326">
        <ele>208.3</ele>
        <time>2023-06-21T07:12:01.000Z</time>
      </trkpt>
      <trkpt lat="43.50485" lon="6.41327">
        <ele>208.4</ele>
        <time>2023-06-21T07:12:11.000Z</time>
      </trkpt>
      <trkpt lat="43.50487" lon="6.41328">
        <ele>208.6</ele>
        <time>2023-06-21T07:12:21.000Z</time>
      </trkpt>
      <trkpt lat="43.50491" lon="6.41325">
        <ele>208.8</ele>
        <time>2023-06-21T07:12:31.000Z</time>
      </trkpt>
      <trkpt lat="43.50493" lon="6.41324">
        <ele>208.8</ele>
        <time>2023-06-21T07:12:41.000Z</time>
      </trkpt>
      <trkpt lat="43.50495" lon="6.41325">
        <ele>208.8</ele>
        <time>2023-06-21T07:12:51.000Z</time>
      </trkpt>
      <trkpt lat="43.50495" lon="6.41327">
        <ele>209.1</ele>
        <time>2023-06-21T07:13:01.000Z</time>
      </trkpt>
      <trkpt lat="43.50501" lon="6.41331">
        <ele>208.6</ele>
        <time>2023-06-21T07:13:11.000Z</time>
      </trkpt>
      <trkpt lat="43.50509" lon="6.41337">
        <ele>207.7</ele>
        <time>2023-06-21T07:13:21.000Z</time>
      </trkpt>
      <trkpt lat="43.50519" lon="6.41332">
        <ele>207.1</ele>
        <time>2023-06-21T07:13:31.000Z</time>
      </trkpt>
      <trkpt lat="43.50533" lon="6.41331">
        <ele>206.9</ele>
        <time>2023-06-21T07:13:41.000Z</time>
      </trkpt>
      <trkpt lat="43.50543" lon="6.41329">
        <ele>206.7</ele>
        <time>2023-06-21T07:13:51.000Z</time>
      </trkpt>
      <trkpt lat="43.50548" lon="6.41329">
        <ele>206.7</ele>
        <time>2023-06-21T07:14:01.000Z</time>
      </trkpt>
      <trkpt lat="43.50557" lon="6.41322">
        <ele>206.5</ele>
        <time>2023-06-21T07:14:11.000Z</time>
      </trkpt>
      <trkpt lat="43.50565" lon="6.41312">
        <ele>206.5</ele>
        <time>2023-06-21T07:14:21.000Z</time>
      </trkpt>
      <trkpt lat="43.50578" lon="6.41304">
        <ele>206.6</ele>
        <time>2023-06-21T07:14:31.000Z</time>
      </trkpt>
      <trkpt lat="43.50587" lon="6.41299">
        <ele>206.9</ele>
        <time>2023-06-21T07:14:41.000Z</time>
      </trkpt>
      <trkpt lat="43.506" lon="6.41301">
        <ele>207.7</ele>
        <time>2023-06-21T07:14:51.000Z</time>
      </trkpt>
      <trkpt lat="43.50606" lon="6.413">
        <ele>208.5</ele>
        <time>2023-06-21T07:15:01.000Z</time>
      </trkpt>
      <trkpt lat="43.50615" lon="6.41292">
        <ele>209.2</ele>
        <time>2023-06-21T07:15:11.000Z</time>
      </trkpt>
      <trkpt lat="43.5062" lon="6.41278">
        <ele>210.7</ele>
        <time>2023-06-21T07:15:21.000Z</time>
      </trkpt>
      <trkpt lat="43.50625" lon="6.41266">
        <ele>211.5</ele>
        <time>2023-06-21T07:15:31.000Z</time>
      </trkpt>
      <trkpt lat="43.50629" lon="6.4125">
        <ele>211.8</ele>
        <time>2023-06-21T07:15:41.000Z</time>
      </trkpt>
      <trkpt lat="43.50631" lon="6.41233">
        <ele>210.8</ele>
        <time>2023-06-21T07:15:51.000Z</time>
      </trkpt>
      <trkpt lat="43.50634" lon="6.41218">
        <ele>210.2</ele>
        <time>2023-06-21T07:16:01.000Z</time>
      </trkpt>
      <trkpt lat="43.50636" lon="6.412">
        <ele>209.5</ele>
        <time>2023-06-21T07:16:11.000Z</time>
      </trkpt>
      <trkpt lat="43.50639" lon="6.41186">
        <ele>208.1</ele>
        <time>2023-06-21T07:16:21.000Z</time>
      </trkpt>
      <trkpt lat="43.50638" lon="6.41172">
        <ele>207.1</ele>
        <time>2023-06-21T07:16:31.000Z</time>
      </trkpt>
      <trkpt lat="43.5064" lon="6.41159">
        <ele>206.1</ele>
        <time>2023-06-21T07:16:41.000Z</time>
      </trkpt>
      <trkpt lat="43.50641" lon="6.41148">
        <ele>204.9</ele>
        <time>2023-06-21T07:16:51.000Z</time>
      </trkpt>
      <trkpt lat="43.50643" lon="6.41133">
        <ele>204</ele>
        <time>2023-06-21T07:17:01.000Z</time>
      </trkpt>
      <trkpt lat="43.5065" lon="6.41123">
        <ele>202.6</ele>
        <time>2023-06-21T07:17:11.000Z</time>
      </trkpt>
      <trkpt lat="43.50654" lon="6.41122">
        <ele>202.4</ele>
        <time>2023-06-21T07:17:21.000Z</time>
      </trkpt>
      <trkpt lat="43.50667" lon="6.41123">
        <ele>203.5</ele>
        <time>2023-06-21T07:17:31.000Z</time>
      </trkpt>
      <trkpt lat="43.50679" lon="6.41118">
        <ele>204.9</ele>
        <time>2023-06-21T07:17:41.000Z</time>
      </trkpt>
      <trkpt lat="43.50687" lon="6.41112">
        <ele>205.7</ele>
        <time>2023-06-21T07:17:51.000Z</time>
      </trkpt>
      <trkpt lat="43.50694" lon="6.411">
        <ele>205.6</ele>
        <time>2023-06-21T07:18:01.000Z</time>
      </trkpt>
      <trkpt lat="43.50703" lon="6.41093">
        <ele>205.4</ele>
        <time>2023-06-21T07:18:11.000Z</time>
      </trkpt>
      <trkpt lat="43.50715" lon="6.41084">
        <ele>204.9</ele>
        <time>2023-06-21T07:18:21.000Z</time>
      </trkpt>
      <trkpt lat="43.50725" lon="6.41074">
        <ele>205.1</ele>
        <time>2023-06-21T07:18:31.000Z</time>
      </trkpt>
      <trkpt lat="43.50733" lon="6.41065">
        <ele>204.5</ele>
        <time>2023-06-21T07:18:41.000Z</time>
      </trkpt>
      <trkpt lat="43.50743" lon="6.41064">
        <ele>205.1</ele>
        <time>2023-06-21T07:18:51.000Z</time>
      </trkpt>
      <trkpt lat="43.50751" lon="6.41058">
        <ele>205.8</ele>
        <time>2023-06-21T07:19:01.000Z</time>
      </trkpt>
      <trkpt lat="43.50764" lon="6.41055">
        <ele>206.7</ele>
        <time>2023-06-21T07:19:11.000Z</time>
      </trkpt>
      <trkpt lat="43.50775" lon="6.41051">
        <ele>207</ele>
        <time>2023-06-21T07:19:21.000Z</time>
      </trkpt>
      <trkpt lat="43.50781" lon="6.4105">
        <ele>209.1</ele>
        <time>2023-06-21T07:19:31.000Z</time>
      </trkpt>
      <trkpt lat="43.5079" lon="6.41047">
        <ele>208.9</ele>
        <time>2023-06-21T07:19:41.000Z</time>
      </trkpt>
      <trkpt lat="43.50798" lon="6.41046">
        <ele>210.7</ele>
        <time>2023-06-21T07:19:51.000Z</time>
      </trkpt>
      <trkpt lat="43.50805" lon="6.41041">
        <ele>211.9</ele>
        <time>2023-06-21T07:20:01.000Z</time>
      </trkpt>
      <trkpt lat="43.50814" lon="6.41038">
        <ele>213.6</ele>
        <time>2023-06-21T07:20:11.000Z</time>
      </trkpt>
      <trkpt lat="43.5082" lon="6.41033">
        <ele>214.9</ele>
        <time>2023-06-21T07:20:21.000Z</time>
      </trkpt>
      <trkpt lat="43.50827" lon="6.41024">
        <ele>217</ele>
        <time>2023-06-21T07:20:31.000Z</time>
      </trkpt>
      <trkpt lat="43.50834" lon="6.4101">
        <ele>217.7</ele>
        <time>2023-06-21T07:20:41.000Z</time>
      </trkpt>
      <trkpt lat="43.50838" lon="6.41001">
        <ele>218.1</ele>
        <time>2023-06-21T07:20:51.000Z</time>
      </trkpt>
      <trkpt lat="43.50849" lon="6.40991">
        <ele>219.4</ele>
        <time>2023-06-21T07:21:01.000Z</time>
      </trkpt>
      <trkpt lat="43.50862" lon="6.40982">
        <ele>219.2</ele>
        <time>2023-06-21T07:21:11.000Z</time>
      </trkpt>
      <trkpt lat="43.50872" lon="6.40978">
        <ele>218.3</ele>
        <time>2023-06-21T07:21:21.000Z</time>
      </trkpt>
      <trkpt lat="43.50878" lon="6.40981">
        <ele>218.4</ele>
        <time>2023-06-21T07:21:31.000Z</time>
      </trkpt>
      <trkpt lat="43.50887" lon="6.40986">
        <ele>219.1</ele>
        <time>2023-06-21T07:21:41.000Z</time>
      </trkpt>
      <trkpt lat="43.50896" lon="6.40986">
        <ele>221</ele>
        <time>2023-06-21T07:21:51.000Z</time>
      </trkpt>
      <trkpt lat="43.50905" lon="6.40981">
        <ele>221.3</ele>
        <time>2023-06-21T07:22:01.000Z</time>
      </trkpt>
      <trkpt lat="43.50917" lon="6.40977">
        <ele>220.2</ele>
        <time>2023-06-21T07:22:11.000Z</time>
      </trkpt>
      <trkpt lat="43.50928" lon="6.40966">
        <ele>218.5</ele>
        <time>2023-06-21T07:22:21.000Z</time>
      </trkpt>
      <trkpt lat="43.50939" lon="6.4096">
        <ele>216.8</ele>
        <time>2023-06-21T07:22:31.000Z</time>
      </trkpt>
      <trkpt lat="43.50948" lon="6.40955">
        <ele>215.2</ele>
        <time>2023-06-21T07:22:41.000Z</time>
      </trkpt>
      <trkpt lat="43.50961" lon="6.4095">
        <ele>214.7</ele>
        <time>2023-06-21T07:22:51.000Z</time>
      </trkpt>
      <trkpt lat="43.50974" lon="6.40945">
        <ele>214.5</ele>
        <time>2023-06-21T07:23:01.000Z</time>
      </trkpt>
      <trkpt lat="43.50982" lon="6.4094">
        <ele>214.1</ele>
        <time>2023-06-21T07:23:11.000Z</time>
      </trkpt>
      <trkpt lat="43.50993" lon="6.40938">
        <ele>215.3</ele>
        <time>2023-06-21T07:23:21.000Z</time>
      </trkpt>
      <trkpt lat="43.51" lon="6.40936">
        <ele>216.5</ele>
        <time>2023-06-21T07:23:31.000Z</time>
      </trkpt>
      <trkpt lat="43.51011" lon="6.40938">
        <ele>217.8</ele>
        <time>2023-06-21T07:23:41.000Z</time>
      </trkpt>
      <trkpt lat="43.51019" lon="6.40938">
        <ele>219.3</ele>
        <time>2023-06-21T07:23:51.000Z</time>
      </trkpt>
      <trkpt lat="43.51027" lon="6.40938">
        <ele>220.5</ele>
        <time>2023-06-21T07:24:01.000Z</time>
      </trkpt>
      <trkpt lat="43.51042" lon="6.40933">
        <ele>221.4</ele>
        <time>2023-06-21T07:24:11.000Z</time>
      </trkpt>
      <trkpt lat="43.5105" lon="6.40933">
        <ele>221.6</ele>
        <time>2023-06-21T07:24:21.000Z</time>
      </trkpt>
      <trkpt lat="43.51052" lon="6.40934">
        <ele>222.8</ele>
        <time>2023-06-21T07:24:31.000Z</time>
      </trkpt>
      <trkpt lat="43.51058" lon="6.40937">
        <ele>225</ele>
        <time>2023-06-21T07:24:41.000Z</time>
      </trkpt>
      <trkpt lat="43.5107" lon="6.40942">
        <ele>227</ele>
        <time>2023-06-21T07:24:51.000Z</time>
      </trkpt>
      <trkpt lat="43.51077" lon="6.40945">
        <ele>227.4</ele>
        <time>2023-06-21T07:25:01.000Z</time>
      </trkpt>
      <trkpt lat="43.51087" lon="6.40948">
        <ele>228.6</ele>
        <time>2023-06-21T07:25:11.000Z</time>
      </trkpt>
      <trkpt lat="43.51093" lon="6.40956">
        <ele>230.6</ele>
        <time>2023-06-21T07:25:21.000Z</time>
      </trkpt>
      <trkpt lat="43.511" lon="6.40959">
        <ele>231.2</ele>
        <time>2023-06-21T07:25:31.000Z</time>
      </trkpt>
      <trkpt lat="43.51106" lon="6.40957">
        <ele>231.8</ele>
        <time>2023-06-21T07:25:41.000Z</time>
      </trkpt>
      <trkpt lat="43.51115" lon="6.40957">
        <ele>232.9</ele>
        <time>2023-06-21T07:25:51.000Z</time>
      </trkpt>
      <trkpt lat="43.51121" lon="6.40959">
        <ele>233.8</ele>
        <time>2023-06-21T07:26:01.000Z</time>
      </trkpt>
      <trkpt lat="43.5112" lon="6.40963">
        <ele>235.3</ele>
        <time>2023-06-21T07:26:11.000Z</time>
      </trkpt>
      <trkpt lat="43.51119" lon="6.40964">
        <ele>235.2</ele>
        <time>2023-06-21T07:26:21.000Z</time>
      </trkpt>
      <trkpt lat="43.5112" lon="6.40967">
        <ele>235</ele>
        <time>2023-06-21T07:26:31.000Z</time>
      </trkpt>
      <trkpt lat="43.51119" lon="6.40969">
        <ele>235.2</ele>
        <time>2023-06-21T07:26:41.000Z</time>
      </trkpt>
      <trkpt lat="43.51113" lon="6.40975">
        <ele>235.7</ele>
        <time>2023-06-21T07:26:51.000Z</time>
      </trkpt>
      <trkpt lat="43.51106" lon="6.40981">
        <ele>236.8</ele>
        <time>2023-06-21T07:27:01.000Z</time>
      </trkpt>
      <trkpt lat="43.51099" lon="6.40992">
        <ele>237.9</ele>
        <time>2023-06-21T07:27:11.000Z</time>
      </trkpt>
      <trkpt lat="43.51098" lon="6.41001">
        <ele>239.1</ele>
        <time>2023-06-21T07:27:21.000Z</time>
      </trkpt>
      <trkpt lat="43.51092" lon="6.41006">
        <ele>242.2</ele>
        <time>2023-06-21T07:27:31.000Z</time>
      </trkpt>
      <trkpt lat="43.51087" lon="6.41013">
        <ele>243.4</ele>
        <time>2023-06-21T07:27:41.000Z</time>
      </trkpt>
      <trkpt lat="43.51079" lon="6.4102">
        <ele>245.1</ele>
        <time>2023-06-21T07:27:51.000Z</time>
      </trkpt>
      <trkpt lat="43.5107" lon="6.41023">
        <ele>245.7</ele>
        <time>2023-06-21T07:28:01.000Z</time>
      </trkpt>
      <trkpt lat="43.51063" lon="6.41029">
        <ele>246.3</ele>
        <time>2023-06-21T07:28:11.000Z</time>
      </trkpt>
      <trkpt lat="43.51052" lon="6.41036">
        <ele>248.3</ele>
        <time>2023-06-21T07:28:21.000Z</time>
      </trkpt>
      <trkpt lat="43.51042" lon="6.41042">
        <ele>248.6</ele>
        <time>2023-06-21T07:28:31.000Z</time>
      </trkpt>
      <trkpt lat="43.51034" lon="6.41047">
        <ele>248.8</ele>
        <time>2023-06-21T07:28:41.000Z</time>
      </trkpt>
      <trkpt lat="43.51031" lon="6.41047">
        <ele>248.6</ele>
        <time>2023-06-21T07:28:51.000Z</time>
      </trkpt>
      <trkpt lat="43.51029" lon="6.41054">
        <ele>249.3</ele>
        <time>2023-06-21T07:29:01.000Z</time>
      </trkpt>
      <trkpt lat="43.51031" lon="6.41065">
        <ele>251</ele>
        <time>2023-06-21T07:29:11.000Z</time>
      </trkpt>
      <trkpt lat="43.51034" lon="6.41076">
        <ele>252.1</ele>
        <time>2023-06-21T07:29:21.000Z</time>
      </trkpt>
      <trkpt lat="43.51032" lon="6.41085">
        <ele>253.6</ele>
        <time>2023-06-21T07:29:31.000Z</time>
      </trkpt>
      <trkpt lat="43.51032" lon="6.41097">
        <ele>255.5</ele>
        <time>2023-06-21T07:29:41.000Z</time>
      </trkpt>
      <trkpt lat="43.51024" lon="6.41108">
        <ele>256.7</ele>
        <time>2023-06-21T07:29:51.000Z</time>
      </trkpt>
      <trkpt lat="43.51017" lon="6.41116">
        <ele>257.8</ele>
        <time>2023-06-21T07:30:01.000Z</time>
      </trkpt>
      <trkpt lat="43.51009" lon="6.41129">
        <ele>258</ele>
        <time>2023-06-21T07:30:11.000Z</time>
      </trkpt>
      <trkpt lat="43.51003" lon="6.41138">
        <ele>258.9</ele>
        <time>2023-06-21T07:30:21.000Z</time>
      </trkpt>
      <trkpt lat="43.51002" lon="6.41148">
        <ele>260.4</ele>
        <time>2023-06-21T07:30:31.000Z</time>
      </trkpt>
      <trkpt lat="43.51006" lon="6.41157">
        <ele>262.2</ele>
        <time>2023-06-21T07:30:41.000Z</time>
      </trkpt>
      <trkpt lat="43.51004" lon="6.41172">
        <ele>263</ele>
        <time>2023-06-21T07:30:51.000Z</time>
      </trkpt>
      <trkpt lat="43.50999" lon="6.41187">
        <ele>263.3</ele>
        <time>2023-06-21T07:31:01.000Z</time>
      </trkpt>
      <trkpt lat="43.50995" lon="6.412">
        <ele>264.4</ele>
        <time>2023-06-21T07:31:11.000Z</time>
      </trkpt>
      <trkpt lat="43.50996" lon="6.41214">
        <ele>265.1</ele>
        <time>2023-06-21T07:31:21.000Z</time>
      </trkpt>
      <trkpt lat="43.50997" lon="6.41217">
        <ele>265.4</ele>
        <time>2023-06-21T07:31:31.000Z</time>
      </trkpt>
      <trkpt lat="43.50998" lon="6.41219">
        <ele>265.4</ele>
        <time>2023-06-21T07:31:41.000Z</time>
      </trkpt>
      <trkpt lat="43.51" lon="6.41219">
        <ele>265.3</ele>
        <time>2023-06-21T07:31:51.000Z</time>
      </trkpt>
      <trkpt lat="43.51" lon="6.41219">
        <ele>265.3</ele>
        <time>2023-06-21T07:32:01.000Z</time>
      </trkpt>
      <trkpt lat="43.51002" lon="6.4122">
        <ele>264.9</ele>
        <time>2023-06-21T07:32:11.000Z</time>
      </trkpt>
      <trkpt lat="43.51001" lon="6.41221">
        <ele>264.8</ele>
        <time>2023-06-21T07:32:21.000Z</time>
      </trkpt>
      <trkpt lat="43.51002" lon="6.41219">
        <ele>264.8</ele>
        <time>2023-06-21T07:32:31.000Z</time>
      </trkpt>
      <trkpt lat="43.51002" lon="6.41215">
        <ele>264.8</ele>
        <time>2023-06-21T07:32:41.000Z</time>
      </trkpt>
      <trkpt lat="43.51004" lon="6.41213">
        <ele>264.8</ele>
        <time>2023-06-21T07:32:51.000Z</time>
      </trkpt>
      <trkpt lat="43.51004" lon="6.41212">
        <ele>264.8</ele>
        <time>2023-06-21T07:33:01.000Z</time>
      </trkpt>
      <trkpt lat="43.51006" lon="6.41213">
        <ele>264.8</ele>
        <time>2023-06-21T07:33:11.000Z</time>
      </trkpt>
      <trkpt lat="43.51006" lon="6.41214">
        <ele>264.7</ele>
        <time>2023-06-21T07:33:21.000Z</time>
      </trkpt>
      <trkpt lat="43.51006" lon="6.41217">
        <ele>264.8</ele>
        <time>2023-06-21T07:33:31.000Z</time>
      </trkpt>
      <trkpt lat="43.51008" lon="6.41218">
        <ele>264.7</ele>
        <time>2023-06-21T07:33:41.000Z</time>
      </trkpt>
      <trkpt lat="43.51004" lon="6.41222">
        <ele>264.7</ele>
        <time>2023-06-21T07:33:51.000Z</time>
      </trkpt>
      <trkpt lat="43.51002" lon="6.41224">
        <ele>264.8</ele>
        <time>2023-06-21T07:34:01.000Z</time>
      </trkpt>
      <trkpt lat="43.51001" lon="6.41225">
        <ele>264.7</ele>
        <time>2023-06-21T07:34:11.000Z</time>
      </trkpt>
      <trkpt lat="43.50998" lon="6.41225">
        <ele>264.7</ele>
        <time>2023-06-21T07:34:21.000Z</time>
      </trkpt>
      <trkpt lat="43.50999" lon="6.41226">
        <ele>264.6</ele>
        <time>2023-06-21T07:34:31.000Z</time>
      </trkpt>
      <trkpt lat="43.50999" lon="6.41224">
        <ele>264.6</ele>
        <time>2023-06-21T07:34:41.000Z</time>
      </trkpt>
      <trkpt lat="43.50998" lon="6.41223">
        <ele>264.5</ele>
        <time>2023-06-21T07:34:51.000Z</time>
      </trkpt>
      <trkpt lat="43.50997" lon="6.41222">
        <ele>264.4</ele>
        <time>2023-06-21T07:35:01.000Z</time>
      </trkpt>
      <trkpt lat="43.50996" lon="6.4122">
        <ele>264.4</ele>
        <time>2023-06-21T07:35:11.000Z</time>
      </trkpt>
      <trkpt lat="43.50996" lon="6.41219">
        <ele>264.4</ele>
        <time>2023-06-21T07:35:21.000Z</time>
      </trkpt>
      <trkpt lat="43.50998" lon="6.41223">
        <ele>264.3</ele>
        <time>2023-06-21T07:35:31.000Z</time>
      </trkpt>
      <trkpt lat="43.50999" lon="6.41225">
        <ele>264.2</ele>
        <time>2023-06-21T07:35:41.000Z</time>
      </trkpt>
      <trkpt lat="43.50997" lon="6.41226">
        <ele>264.2</ele>
        <time>2023-06-21T07:35:51.000Z</time>
      </trkpt>
      <trkpt lat="43.50999" lon="6.41227">
        <ele>264.2</ele>
        <time>2023-06-21T07:36:01.000Z</time>
      </trkpt>
      <trkpt lat="43.51" lon="6.41226">
        <ele>264.2</ele>
        <time>2023-06-21T07:36:11.000Z</time>
      </trkpt>
      <trkpt lat="43.51001" lon="6.41227">
        <ele>264</ele>
        <time>2023-06-21T07:36:21.000Z</time>
      </trkpt>
      <trkpt lat="43.51005" lon="6.41229">
        <ele>263.9</ele>
        <time>2023-06-21T07:36:31.000Z</time>
      </trkpt>
      <trkpt lat="43.51009" lon="6.41234">
        <ele>263.8</ele>
        <time>2023-06-21T07:36:41.000Z</time>
      </trkpt>
      <trkpt lat="43.51019" lon="6.41228">
        <ele>263.4</ele>
        <time>2023-06-21T07:36:51.000Z</time>
      </trkpt>
      <trkpt lat="43.51026" lon="6.41222">
        <ele>262.7</ele>
        <time>2023-06-21T07:37:01.000Z</time>
      </trkpt>
      <trkpt lat="43.51031" lon="6.4122">
        <ele>262.6</ele>
        <time>2023-06-21T07:37:11.000Z</time>
      </trkpt>
      <trkpt lat="43.51038" lon="6.41215">
        <ele>262.3</ele>
        <time>2023-06-21T07:37:21.000Z</time>
      </trkpt>
      <trkpt lat="43.51044" lon="6.41209">
        <ele>261.5</ele>
        <time>2023-06-21T07:37:31.000Z</time>
      </trkpt>
      <trkpt lat="43.51052" lon="6.41204">
        <ele>261.1</ele>
        <time>2023-06-21T07:37:41.000Z</time>
      </trkpt>
      <trkpt lat="43.51059" lon="6.41203">
        <ele>260.8</ele>
        <time>2023-06-21T07:37:51.000Z</time>
      </trkpt>
      <trkpt lat="43.51066" lon="6.412">
        <ele>260.3</ele>
        <time>2023-06-21T07:38:01.000Z</time>
      </trkpt>
      <trkpt lat="43.51073" lon="6.412">
        <ele>259.9</ele>
        <time>2023-06-21T07:38:11.000Z</time>
      </trkpt>
      <trkpt lat="43.51077" lon="6.41197">
        <ele>259.8</ele>
        <time>2023-06-21T07:38:21.000Z</time>
      </trkpt>
      <trkpt lat="43.51085" lon="6.4119">
        <ele>259.3</ele>
        <time>2023-06-21T07:38:31.000Z</time>
      </trkpt>
      <trkpt lat="43.5109" lon="6.41181">
        <ele>258.8</ele>
        <time>2023-06-21T07:38:41.000Z</time>
      </trkpt>
      <trkpt lat="43.51094" lon="6.41173">
        <ele>258.4</ele>
        <time>2023-06-21T07:38:51.000Z</time>
      </trkpt>
      <trkpt lat="43.51101" lon="6.41166">
        <ele>258</ele>
        <time>2023-06-21T07:39:01.000Z</time>
      </trkpt>
      <trkpt lat="43.51109" lon="6.4116">
        <ele>257.5</ele>
        <time>2023-06-21T07:39:11.000Z</time>
      </trkpt>
      <trkpt lat="43.51114" lon="6.41154">
        <ele>257.2</ele>
        <time>2023-06-21T07:39:21.000Z</time>
      </trkpt>
      <trkpt lat="43.51121" lon="6.41147">
        <ele>256.5</ele>
        <time>2023-06-21T07:39:31.000Z</time>
      </trkpt>
      <trkpt lat="43.51127" lon="6.41138">
        <ele>256</ele>
        <time>2023-06-21T07:39:41.000Z</time>
      </trkpt>
      <trkpt lat="43.51132" lon="6.41129">
        <ele>255.3</ele>
        <time>2023-06-21T07:39:51.000Z</time>
      </trkpt>
      <trkpt lat="43.51137" lon="6.41122">
        <ele>254.3</ele>
        <time>2023-06-21T07:40:01.000Z</time>
      </trkpt>
      <trkpt lat="43.51143" lon="6.41124">
        <ele>253.9</ele>
        <time>2023-06-21T07:40:11.000Z</time>
      </trkpt>
      <trkpt lat="43.5115" lon="6.41132">
        <ele>253.5</ele>
        <time>2023-06-21T07:40:21.000Z</time>
      </trkpt>
      <trkpt lat="43.51158" lon="6.41135">
        <ele>253.6</ele>
        <time>2023-06-21T07:40:31.000Z</time>
      </trkpt>
      <trkpt lat="43.51168" lon="6.41137">
        <ele>253.6</ele>
        <time>2023-06-21T07:40:41.000Z</time>
      </trkpt>
      <trkpt lat="43.51177" lon="6.41135">
        <ele>253.4</ele>
        <time>2023-06-21T07:40:51.000Z</time>
      </trkpt>
      <trkpt lat="43.51188" lon="6.41133">
        <ele>253.6</ele>
        <time>2023-06-21T07:41:01.000Z</time>
      </trkpt>
      <trkpt lat="43.51198" lon="6.41132">
        <ele>254.1</ele>
        <time>2023-06-21T07:41:11.000Z</time>
      </trkpt>
      <trkpt lat="43.51206" lon="6.41127">
        <ele>253.7</ele>
        <time>2023-06-21T07:41:21.000Z</time>
      </trkpt>
      <trkpt lat="43.51206" lon="6.41126">
        <ele>254</ele>
        <time>2023-06-21T07:41:31.000Z</time>
      </trkpt>
      <trkpt lat="43.51209" lon="6.41122">
        <ele>254</ele>
        <time>2023-06-21T07:41:41.000Z</time>
      </trkpt>
      <trkpt lat="43.51218" lon="6.41119">
        <ele>253.3</ele>
        <time>2023-06-21T07:41:51.000Z</time>
      </trkpt>
      <trkpt lat="43.51235" lon="6.41108">
        <ele>254.9</ele>
        <time>2023-06-21T07:42:01.000Z</time>
      </trkpt>
      <trkpt lat="43.51245" lon="6.41105">
        <ele>256.1</ele>
        <time>2023-06-21T07:42:11.000Z</time>
      </trkpt>
      <trkpt lat="43.51258" lon="6.411">
        <ele>254.8</ele>
        <time>2023-06-21T07:42:21.000Z</time>
      </trkpt>
      <trkpt lat="43.51271" lon="6.41093">
        <ele>255.7</ele>
        <time>2023-06-21T07:42:31.000Z</time>
      </trkpt>
      <trkpt lat="43.51282" lon="6.41088">
        <ele>256.2</ele>
        <time>2023-06-21T07:42:41.000Z</time>
      </trkpt>
      <trkpt lat="43.51293" lon="6.41086">
        <ele>256</ele>
        <time>2023-06-21T07:42:51.000Z</time>
      </trkpt>
      <trkpt lat="43.51303" lon="6.4108">
        <ele>255.9</ele>
        <time>2023-06-21T07:43:01.000Z</time>
      </trkpt>
      <trkpt lat="43.51314" lon="6.41079">
        <ele>256</ele>
        <time>2023-06-21T07:43:11.000Z</time>
      </trkpt>
      <trkpt lat="43.51324" lon="6.41082">
        <ele>255.9</ele>
        <time>2023-06-21T07:43:21.000Z</time>
      </trkpt>
      <trkpt lat="43.51336" lon="6.41078">
        <ele>255.9</ele>
        <time>2023-06-21T07:43:31.000Z</time>
      </trkpt>
      <trkpt lat="43.51343" lon="6.41078">
        <ele>255.3</ele>
        <time>2023-06-21T07:43:41.000Z</time>
      </trkpt>
      <trkpt lat="43.51351" lon="6.41085">
        <ele>255.7</ele>
        <time>2023-06-21T07:43:51.000Z</time>
      </trkpt>
      <trkpt lat="43.5136" lon="6.41094">
        <ele>255.6</ele>
        <time>2023-06-21T07:44:01.000Z</time>
      </trkpt>
      <trkpt lat="43.51367" lon="6.41105">
        <ele>255.6</ele>
        <time>2023-06-21T07:44:11.000Z</time>
      </trkpt>
      <trkpt lat="43.51375" lon="6.4111">
        <ele>254.9</ele>
        <time>2023-06-21T07:44:21.000Z</time>
      </trkpt>
      <trkpt lat="43.51384" lon="6.41116">
        <ele>254</ele>
        <time>2023-06-21T07:44:31.000Z</time>
      </trkpt>
      <trkpt lat="43.5139" lon="6.4112">
        <ele>253.2</ele>
        <time>2023-06-21T07:44:41.000Z</time>
      </trkpt>
      <trkpt lat="43.51398" lon="6.41128">
        <ele>251.9</ele>
        <time>2023-06-21T07:44:51.000Z</time>
      </trkpt>
      <trkpt lat="43.51404" lon="6.41136">
        <ele>251</ele>
        <time>2023-06-21T07:45:01.000Z</time>
      </trkpt>
      <trkpt lat="43.5141" lon="6.41144">
        <ele>250.4</ele>
        <time>2023-06-21T07:45:11.000Z</time>
      </trkpt>
      <trkpt lat="43.51418" lon="6.41155">
        <ele>249.8</ele>
        <time>2023-06-21T07:45:21.000Z</time>
      </trkpt>
      <trkpt lat="43.51424" lon="6.41163">
        <ele>249.2</ele>
        <time>2023-06-21T07:45:31.000Z</time>
      </trkpt>
      <trkpt lat="43.51434" lon="6.4117">
        <ele>248.1</ele>
        <time>2023-06-21T07:45:41.000Z</time>
      </trkpt>
      <trkpt lat="43.51443" lon="6.4118">
        <ele>248</ele>
        <time>2023-06-21T07:45:51.000Z</time>
      </trkpt>
      <trkpt lat="43.51451" lon="6.4119">
        <ele>247.5</ele>
        <time>2023-06-21T07:46:01.000Z</time>
      </trkpt>
      <trkpt lat="43.51455" lon="6.412">
        <ele>247.9</ele>
        <time>2023-06-21T07:46:11.000Z</time>
      </trkpt>
      <trkpt lat="43.51457" lon="6.41206">
        <ele>247.9</ele>
        <time>2023-06-21T07:46:21.000Z</time>
      </trkpt>
      <trkpt lat="43.51461" lon="6.4121">
        <ele>248.4</ele>
        <time>2023-06-21T07:46:31.000Z</time>
      </trkpt>
      <trkpt lat="43.51466" lon="6.41213">
        <ele>248</ele>
        <time>2023-06-21T07:46:41.000Z</time>
      </trkpt>
      <trkpt lat="43.51475" lon="6.41214">
        <ele>248.1</ele>
        <time>2023-06-21T07:46:51.000Z</time>
      </trkpt>
      <trkpt lat="43.51482" lon="6.41213">
        <ele>247.7</ele>
        <time>2023-06-21T07:47:01.000Z</time>
      </trkpt>
      <trkpt lat="43.51491" lon="6.41211">
        <ele>248.7</ele>
        <time>2023-06-21T07:47:11.000Z</time>
      </trkpt>
      <trkpt lat="43.51498" lon="6.41206">
        <ele>248.8</ele>
        <time>2023-06-21T07:47:21.000Z</time>
      </trkpt>
      <trkpt lat="43.51506" lon="6.412">
        <ele>249.7</ele>
        <time>2023-06-21T07:47:31.000Z</time>
      </trkpt>
      <trkpt lat="43.5151" lon="6.4119">
        <ele>249</ele>
        <time>2023-06-21T07:47:41.000Z</time>
      </trkpt>
      <trkpt lat="43.51511" lon="6.41177">
        <ele>248.6</ele>
        <time>2023-06-21T07:47:51.000Z</time>
      </trkpt>
      <trkpt lat="43.51519" lon="6.41164">
        <ele>248.1</ele>
        <time>2023-06-21T07:48:01.000Z</time>
      </trkpt>
      <trkpt lat="43.51525" lon="6.41157">
        <ele>247.6</ele>
        <time>2023-06-21T07:48:11.000Z</time>
      </trkpt>
      <trkpt lat="43.51537" lon="6.41141">
        <ele>247.8</ele>
        <time>2023-06-21T07:48:21.000Z</time>
      </trkpt>
      <trkpt lat="43.51542" lon="6.41133">
        <ele>247.9</ele>
        <time>2023-06-21T07:48:31.000Z</time>
      </trkpt>
      <trkpt lat="43.51552" lon="6.4112">
        <ele>247.2</ele>
        <time>2023-06-21T07:48:41.000Z</time>
      </trkpt>
      <trkpt lat="43.51557" lon="6.41112">
        <ele>246.7</ele>
        <time>2023-06-21T07:48:51.000Z</time>
      </trkpt>
      <trkpt lat="43.51564" lon="6.41106">
        <ele>246.2</ele>
        <time>2023-06-21T07:49:01.000Z</time>
      </trkpt>
      <trkpt lat="43.51564" lon="6.41104">
        <ele>246.1</ele>
        <time>2023-06-21T07:49:11.000Z</time>
      </trkpt>
      <trkpt lat="43.51564" lon="6.41107">
        <ele>246.3</ele>
        <time>2023-06-21T07:49:21.000Z</time>
      </trkpt>
      <trkpt lat="43.51564" lon="6.41106">
        <ele>246.2</ele>
        <time>2023-06-21T07:49:31.000Z</time>
      </trkpt>
      <trkpt lat="43.51561" lon="6.41099">
        <ele>246.2</ele>
        <time>2023-06-21T07:49:41.000Z</time>
      </trkpt>
      <trkpt lat="43.51561" lon="6.41095">
        <ele>246.6</ele>
        <time>2023-06-21T07:49:51.000Z</time>
      </trkpt>
      <trkpt lat="43.5156" lon="6.41092">
        <ele>246.5</ele>
        <time>2023-06-21T07:50:01.000Z</time>
      </trkpt>
      <trkpt lat="43.51568" lon="6.41087">
        <ele>246.3</ele>
        <time>2023-06-21T07:50:11.000Z</time>
      </trkpt>
      <trkpt lat="43.51578" lon="6.41086">
        <ele>245.6</ele>
        <time>2023-06-21T07:50:21.000Z</time>
      </trkpt>
      <trkpt lat="43.51589" lon="6.41077">
        <ele>246.2</ele>
        <time>2023-06-21T07:50:31.000Z</time>
      </trkpt>
      <trkpt lat="43.51598" lon="6.41073">
        <ele>246</ele>
        <time>2023-06-21T07:50:41.000Z</time>
      </trkpt>
      <trkpt lat="43.51607" lon="6.41065">
        <ele>245.4</ele>
        <time>2023-06-21T07:50:51.000Z</time>
      </trkpt>
      <trkpt lat="43.51614" lon="6.41057">
        <ele>245.4</ele>
        <time>2023-06-21T07:51:01.000Z</time>
      </trkpt>
      <trkpt lat="43.51622" lon="6.4105">
        <ele>245.1</ele>
        <time>2023-06-21T07:51:11.000Z</time>
      </trkpt>
      <trkpt lat="43.51626" lon="6.41046">
        <ele>244.3</ele>
        <time>2023-06-21T07:51:21.000Z</time>
      </trkpt>
      <trkpt lat="43.51635" lon="6.41041">
        <ele>244</ele>
        <time>2023-06-21T07:51:31.000Z</time>
      </trkpt>
      <trkpt lat="43.51641" lon="6.41036">
        <ele>243.6</ele>
        <time>2023-06-21T07:51:41.000Z</time>
      </trkpt>
      <trkpt lat="43.51651" lon="6.41035">
        <ele>243.3</ele>
        <time>2023-06-21T07:51:51.000Z</time>
      </trkpt>
      <trkpt lat="43.51658" lon="6.41029">
        <ele>242.9</ele>
        <time>2023-06-21T07:52:01.000Z</time>
      </trkpt>
      <trkpt lat="43.51667" lon="6.41022">
        <ele>242.8</ele>
        <time>2023-06-21T07:52:11.000Z</time>
      </trkpt>
      <trkpt lat="43.51676" lon="6.41017">
        <ele>242.7</ele>
        <time>2023-06-21T07:52:21.000Z</time>
      </trkpt>
      <trkpt lat="43.51682" lon="6.41013">
        <ele>242.2</ele>
        <time>2023-06-21T07:52:31.000Z</time>
      </trkpt>
      <trkpt lat="43.51688" lon="6.4101">
        <ele>241.5</ele>
        <time>2023-06-21T07:52:41.000Z</time>
      </trkpt>
      <trkpt lat="43.51694" lon="6.41005">
        <ele>241.2</ele>
        <time>2023-06-21T07:52:51.000Z</time>
      </trkpt>
      <trkpt lat="43.51702" lon="6.41004">
        <ele>240.5</ele>
        <time>2023-06-21T07:53:01.000Z</time>
      </trkpt>
      <trkpt lat="43.51708" lon="6.41">
        <ele>239.9</ele>
        <time>2023-06-21T07:53:11.000Z</time>
      </trkpt>
      <trkpt lat="43.51706" lon="6.40993">
        <ele>239.7</ele>
        <time>2023-06-21T07:53:21.000Z</time>
      </trkpt>
      <trkpt lat="43.51709" lon="6.40987">
        <ele>239.1</ele>
        <time>2023-06-21T07:53:31.000Z</time>
      </trkpt>
      <trkpt lat="43.51716" lon="6.4098">
        <ele>238.4</ele>
        <time>2023-06-21T07:53:41.000Z</time>
      </trkpt>
      <trkpt lat="43.51718" lon="6.40973">
        <ele>238.2</ele>
        <time>2023-06-21T07:53:51.000Z</time>
      </trkpt>
      <trkpt lat="43.51723" lon="6.40969">
        <ele>238.1</ele>
        <time>2023-06-21T07:54:01.000Z</time>
      </trkpt>
      <trkpt lat="43.51729" lon="6.40965">
        <ele>237.9</ele>
        <time>2023-06-21T07:54:11.000Z</time>
      </trkpt>
      <trkpt lat="43.51726" lon="6.40961">
        <ele>238.2</ele>
        <time>2023-06-21T07:54:21.000Z</time>
      </trkpt>
      <trkpt lat="43.51725" lon="6.4096">
        <ele>238.2</ele>
        <time>2023-06-21T07:54:31.000Z</time>
      </trkpt>
      <trkpt lat="43.51724" lon="6.40959">
        <ele>238.2</ele>
        <time>2023-06-21T07:54:41.000Z</time>
      </trkpt>
      <trkpt lat="43.51722" lon="6.40958">
        <ele>238.2</ele>
        <time>2023-06-21T07:54:51.000Z</time>
      </trkpt>
      <trkpt lat="43.51722" lon="6.40957">
        <ele>238.2</ele>
        <time>2023-06-21T07:55:01.000Z</time>
      </trkpt>
      <trkpt lat="43.51726" lon="6.40951">
        <ele>237.2</ele>
        <time>2023-06-21T07:55:11.000Z</time>
      </trkpt>
      <trkpt lat="43.51738" lon="6.40944">
        <ele>237.2</ele>
        <time>2023-06-21T07:55:21.000Z</time>
      </trkpt>
      <trkpt lat="43.5175" lon="6.40935">
        <ele>236.5</ele>
        <time>2023-06-21T07:55:31.000Z</time>
      </trkpt>
      <trkpt lat="43.51762" lon="6.40927">
        <ele>235.5</ele>
        <time>2023-06-21T07:55:41.000Z</time>
      </trkpt>
      <trkpt lat="43.51777" lon="6.40918">
        <ele>235.1</ele>
        <time>2023-06-21T07:55:51.000Z</time>
      </trkpt>
      <trkpt lat="43.51788" lon="6.40909">
        <ele>233.6</ele>
        <time>2023-06-21T07:56:01.000Z</time>
      </trkpt>
      <trkpt lat="43.518" lon="6.40903">
        <ele>233.2</ele>
        <time>2023-06-21T07:56:11.000Z</time>
      </trkpt>
      <trkpt lat="43.51808" lon="6.40901">
        <ele>232</ele>
        <time>2023-06-21T07:56:21.000Z</time>
      </trkpt>
      <trkpt lat="43.51824" lon="6.40898">
        <ele>231</ele>
        <time>2023-06-21T07:56:31.000Z</time>
      </trkpt>
      <trkpt lat="43.51839" lon="6.40891">
        <ele>230.9</ele>
        <time>2023-06-21T07:56:41.000Z</time>
      </trkpt>
      <trkpt lat="43.51849" lon="6.40886">
        <ele>230.3</ele>
        <time>2023-06-21T07:56:51.000Z</time>
      </trkpt>
      <trkpt lat="43.51863" lon="6.40884">
        <ele>230</ele>
        <time>2023-06-21T07:57:01.000Z</time>
      </trkpt>
      <trkpt lat="43.5187" lon="6.40886">
        <ele>230.2</ele>
        <time>2023-06-21T07:57:11.000Z</time>
      </trkpt>
      <trkpt lat="43.51879" lon="6.4089">
        <ele>229.5</ele>
        <time>2023-06-21T07:57:21.000Z</time>
      </trkpt>
      <trkpt lat="43.51889" lon="6.40894">
        <ele>228.7</ele>
        <time>2023-06-21T07:57:31.000Z</time>
      </trkpt>
      <trkpt lat="43.51894" lon="6.40898">
        <ele>227.8</ele>
        <time>2023-06-21T07:57:41.000Z</time>
      </trkpt>
      <trkpt lat="43.51905" lon="6.40896">
        <ele>227.6</ele>
        <time>2023-06-21T07:57:51.000Z</time>
      </trkpt>
      <trkpt lat="43.5191" lon="6.40893">
        <ele>226.6</ele>
        <time>2023-06-21T07:58:01.000Z</time>
      </trkpt>
      <trkpt lat="43.51917" lon="6.40891">
        <ele>226.2</ele>
        <time>2023-06-21T07:58:11.000Z</time>
      </trkpt>
      <trkpt lat="43.51925" lon="6.40888">
        <ele>225.6</ele>
        <time>2023-06-21T07:58:21.000Z</time>
      </trkpt>
      <trkpt lat="43.51936" lon="6.40884">
        <ele>224.5</ele>
        <time>2023-06-21T07:58:31.000Z</time>
      </trkpt>
      <trkpt lat="43.51944" lon="6.40882">
        <ele>224.2</ele>
        <time>2023-06-21T07:58:41.000Z</time>
      </trkpt>
      <trkpt lat="43.51951" lon="6.40885">
        <ele>223.3</ele>
        <time>2023-06-21T07:58:51.000Z</time>
      </trkpt>
      <trkpt lat="43.51958" lon="6.40883">
        <ele>222.4</ele>
        <time>2023-06-21T07:59:01.000Z</time>
      </trkpt>
      <trkpt lat="43.51966" lon="6.40885">
        <ele>222</ele>
        <time>2023-06-21T07:59:11.000Z</time>
      </trkpt>
      <trkpt lat="43.51972" lon="6.40889">
        <ele>221</ele>
        <time>2023-06-21T07:59:21.000Z</time>
      </trkpt>
      <trkpt lat="43.51979" lon="6.40898">
        <ele>219.9</ele>
        <time>2023-06-21T07:59:31.000Z</time>
      </trkpt>
      <trkpt lat="43.51986" lon="6.40904">
        <ele>219.1</ele>
        <time>2023-06-21T07:59:41.000Z</time>
      </trkpt>
      <trkpt lat="43.51997" lon="6.40903">
        <ele>218.7</ele>
        <time>2023-06-21T07:59:51.000Z</time>
      </trkpt>
      <trkpt lat="43.52006" lon="6.4091">
        <ele>218.5</ele>
        <time>2023-06-21T08:00:01.000Z</time>
      </trkpt>
      <trkpt lat="43.52013" lon="6.40915">
        <ele>217.6</ele>
        <time>2023-06-21T08:00:11.000Z</time>
      </trkpt>
      <trkpt lat="43.52021" lon="6.40924">
        <ele>216.7</ele>
        <time>2023-06-21T08:00:21.000Z</time>
      </trkpt>
      <trkpt lat="43.52028" lon="6.40931">
        <ele>216.2</ele>
        <time>2023-06-21T08:00:31.000Z</time>
      </trkpt>
      <trkpt lat="43.52034" lon="6.40942">
        <ele>215.5</ele>
        <time>2023-06-21T08:00:41.000Z</time>
      </trkpt>
      <trkpt lat="43.52039" lon="6.40958">
        <ele>215.3</ele>
        <time>2023-06-21T08:00:51.000Z</time>
      </trkpt>
      <trkpt lat="43.52043" lon="6.40971">
        <ele>215.3</ele>
        <time>2023-06-21T08:01:01.000Z</time>
      </trkpt>
      <trkpt lat="43.52045" lon="6.40987">
        <ele>214.7</ele>
        <time>2023-06-21T08:01:11.000Z</time>
      </trkpt>
      <trkpt lat="43.52051" lon="6.41">
        <ele>214.4</ele>
        <time>2023-06-21T08:01:21.000Z</time>
      </trkpt>
      <trkpt lat="43.52058" lon="6.41012">
        <ele>213.3</ele>
        <time>2023-06-21T08:01:31.000Z</time>
      </trkpt>
      <trkpt lat="43.52064" lon="6.41016">
        <ele>213.5</ele>
        <time>2023-06-21T08:01:41.000Z</time>
      </trkpt>
      <trkpt lat="43.52075" lon="6.41005">
        <ele>212.9</ele>
        <time>2023-06-21T08:01:51.000Z</time>
      </trkpt>
      <trkpt lat="43.5208" lon="6.40998">
        <ele>212.6</ele>
        <time>2023-06-21T08:02:01.000Z</time>
      </trkpt>
      <trkpt lat="43.52088" lon="6.40989">
        <ele>211.4</ele>
        <time>2023-06-21T08:02:11.000Z</time>
      </trkpt>
      <trkpt lat="43.52096" lon="6.40984">
        <ele>210.8</ele>
        <time>2023-06-21T08:02:21.000Z</time>
      </trkpt>
      <trkpt lat="43.52104" lon="6.4098">
        <ele>210.2</ele>
        <time>2023-06-21T08:02:31.000Z</time>
      </trkpt>
      <trkpt lat="43.5211" lon="6.40976">
        <ele>209.6</ele>
        <time>2023-06-21T08:02:41.000Z</time>
      </trkpt>
      <trkpt lat="43.52118" lon="6.40966">
        <ele>209.7</ele>
        <time>2023-06-21T08:02:51.000Z</time>
      </trkpt>
      <trkpt lat="43.5213" lon="6.40963">
        <ele>209.2</ele>
        <time>2023-06-21T08:03:01.000Z</time>
      </trkpt>
      <trkpt lat="43.52137" lon="6.40962">
        <ele>209.3</ele>
        <time>2023-06-21T08:03:11.000Z</time>
      </trkpt>
      <trkpt lat="43.52141" lon="6.40959">
        <ele>209</ele>
        <time>2023-06-21T08:03:21.000Z</time>
      </trkpt>
      <trkpt lat="43.52148" lon="6.40961">
        <ele>209.2</ele>
        <time>2023-06-21T08:03:31.000Z</time>
      </trkpt>
      <trkpt lat="43.52158" lon="6.40961">
        <ele>209.3</ele>
        <time>2023-06-21T08:03:41.000Z</time>
      </trkpt>
      <trkpt lat="43.52161" lon="6.40961">
        <ele>209.1</ele>
        <time>2023-06-21T08:03:51.000Z</time>
      </trkpt>
      <trkpt lat="43.52173" lon="6.40955">
        <ele>208.8</ele>
        <time>2023-06-21T08:04:01.000Z</time>
      </trkpt>
      <trkpt lat="43.52179" lon="6.40955">
        <ele>208.1</ele>
        <time>2023-06-21T08:04:11.000Z</time>
      </trkpt>
      <trkpt lat="43.5219" lon="6.40951">
        <ele>208</ele>
        <time>2023-06-21T08:04:21.000Z</time>
      </trkpt>
      <trkpt lat="43.52193" lon="6.40944">
        <ele>207.9</ele>
        <time>2023-06-21T08:04:31.000Z</time>
      </trkpt>
      <trkpt lat="43.52196" lon="6.40941">
        <ele>207.5</ele>
        <time>2023-06-21T08:04:41.000Z</time>
      </trkpt>
      <trkpt lat="43.52197" lon="6.40932">
        <ele>207.6</ele>
        <time>2023-06-21T08:04:51.000Z</time>
      </trkpt>
      <trkpt lat="43.52198" lon="6.40934">
        <ele>207.6</ele>
        <time>2023-06-21T08:05:01.000Z</time>
      </trkpt>
      <trkpt lat="43.52201" lon="6.40923">
        <ele>207.4</ele>
        <time>2023-06-21T08:05:11.000Z</time>
      </trkpt>
      <trkpt lat="43.52208" lon="6.40923">
        <ele>207.8</ele>
        <time>2023-06-21T08:05:21.000Z</time>
      </trkpt>
      <trkpt lat="43.52217" lon="6.40918">
        <ele>209.6</ele>
        <time>2023-06-21T08:05:31.000Z</time>
      </trkpt>
      <trkpt lat="43.52219" lon="6.4092">
        <ele>209.6</ele>
        <time>2023-06-21T08:05:41.000Z</time>
      </trkpt>
      <trkpt lat="43.52221" lon="6.40922">
        <ele>209.4</ele>
        <time>2023-06-21T08:05:51.000Z</time>
      </trkpt>
      <trkpt lat="43.5222" lon="6.40922">
        <ele>209.1</ele>
        <time>2023-06-21T08:06:01.000Z</time>
      </trkpt>
      <trkpt lat="43.52219" lon="6.40921">
        <ele>209.5</ele>
        <time>2023-06-21T08:06:11.000Z</time>
      </trkpt>
      <trkpt lat="43.52219" lon="6.40921">
        <ele>209.5</ele>
        <time>2023-06-21T08:06:21.000Z</time>
      </trkpt>
      <trkpt lat="43.52219" lon="6.40922">
        <ele>209.5</ele>
        <time>2023-06-21T08:06:31.000Z</time>
      </trkpt>
      <trkpt lat="43.52219" lon="6.40923">
        <ele>209.5</ele>
        <time>2023-06-21T08:06:41.000Z</time>
      </trkpt>
      <trkpt lat="43.52218" lon="6.40922">
        <ele>209.5</ele>
        <time>2023-06-21T08:06:51.000Z</time>
      </trkpt>
      <trkpt lat="43.52218" lon="6.40923">
        <ele>209.5</ele>
        <time>2023-06-21T08:07:01.000Z</time>
      </trkpt>
      <trkpt lat="43.52218" lon="6.40923">
        <ele>209.4</ele>
        <time>2023-06-21T08:07:11.000Z</time>
      </trkpt>
      <trkpt lat="43.52218" lon="6.40924">
        <ele>209.5</ele>
        <time>2023-06-21T08:07:21.000Z</time>
      </trkpt>
      <trkpt lat="43.52221" lon="6.40924">
        <ele>209.5</ele>
        <time>2023-06-21T08:07:31.000Z</time>
      </trkpt>
      <trkpt lat="43.52221" lon="6.40923">
        <ele>209.6</ele>
        <time>2023-06-21T08:07:41.000Z</time>
      </trkpt>
      <trkpt lat="43.52218" lon="6.4092">
        <ele>209.8</ele>
        <time>2023-06-21T08:07:51.000Z</time>
      </trkpt>
      <trkpt lat="43.52217" lon="6.40917">
        <ele>209.7</ele>
        <time>2023-06-21T08:08:01.000Z</time>
      </trkpt>
      <trkpt lat="43.52215" lon="6.40915">
        <ele>209</ele>
        <time>2023-06-21T08:08:11.000Z</time>
      </trkpt>
      <trkpt lat="43.5221" lon="6.40915">
        <ele>209.6</ele>
        <time>2023-06-21T08:08:21.000Z</time>
      </trkpt>
      <trkpt lat="43.5221" lon="6.40911">
        <ele>209.5</ele>
        <time>2023-06-21T08:08:31.000Z</time>
      </trkpt>
      <trkpt lat="43.52209" lon="6.40913">
        <ele>209.8</ele>
        <time>2023-06-21T08:08:41.000Z</time>
      </trkpt>
      <trkpt lat="43.52212" lon="6.40913">
        <ele>209.7</ele>
        <time>2023-06-21T08:08:51.000Z</time>
      </trkpt>
      <trkpt lat="43.52214" lon="6.40911">
        <ele>209.8</ele>
        <time>2023-06-21T08:09:01.000Z</time>
      </trkpt>
      <trkpt lat="43.52212" lon="6.40911">
        <ele>209.8</ele>
        <time>2023-06-21T08:09:11.000Z</time>
      </trkpt>
      <trkpt lat="43.52213" lon="6.40916">
        <ele>210</ele>
        <time>2023-06-21T08:09:21.000Z</time>
      </trkpt>
      <trkpt lat="43.52214" lon="6.40917">
        <ele>210.2</ele>
        <time>2023-06-21T08:09:31.000Z</time>
      </trkpt>
      <trkpt lat="43.52213" lon="6.40916">
        <ele>210</ele>
        <time>2023-06-21T08:09:41.000Z</time>
      </trkpt>
      <trkpt lat="43.52215" lon="6.40913">
        <ele>203.3</ele>
        <time>2023-06-21T08:09:51.000Z</time>
      </trkpt>
      <trkpt lat="43.52218" lon="6.40909">
        <ele>209.7</ele>
        <time>2023-06-21T08:10:01.000Z</time>
      </trkpt>
      <trkpt lat="43.52225" lon="6.40906">
        <ele>211.8</ele>
        <time>2023-06-21T08:10:11.000Z</time>
      </trkpt>
      <trkpt lat="43.52229" lon="6.40905">
        <ele>212.9</ele>
        <time>2023-06-21T08:10:21.000Z</time>
      </trkpt>
      <trkpt lat="43.52235" lon="6.40901">
        <ele>213.5</ele>
        <time>2023-06-21T08:10:31.000Z</time>
      </trkpt>
      <trkpt lat="43.52239" lon="6.40895">
        <ele>214.6</ele>
        <time>2023-06-21T08:10:41.000Z</time>
      </trkpt>
      <trkpt lat="43.52247" lon="6.40892">
        <ele>215</ele>
        <time>2023-06-21T08:10:51.000Z</time>
      </trkpt>
      <trkpt lat="43.52254" lon="6.40888">
        <ele>217.2</ele>
        <time>2023-06-21T08:11:01.000Z</time>
      </trkpt>
      <trkpt lat="43.52263" lon="6.40876">
        <ele>217.5</ele>
        <time>2023-06-21T08:11:11.000Z</time>
      </trkpt>
      <trkpt lat="43.52274" lon="6.40864">
        <ele>217.5</ele>
        <time>2023-06-21T08:11:21.000Z</time>
      </trkpt>
      <trkpt lat="43.52282" lon="6.40856">
        <ele>214.7</ele>
        <time>2023-06-21T08:11:31.000Z</time>
      </trkpt>
      <trkpt lat="43.52288" lon="6.40854">
        <ele>217.1</ele>
        <time>2023-06-21T08:11:41.000Z</time>
      </trkpt>
      <trkpt lat="43.52303" lon="6.40843">
        <ele>218.6</ele>
        <time>2023-06-21T08:11:51.000Z</time>
      </trkpt>
      <trkpt lat="43.52316" lon="6.40833">
        <ele>219.6</ele>
        <time>2023-06-21T08:12:01.000Z</time>
      </trkpt>
      <trkpt lat="43.52327" lon="6.40825">
        <ele>220.5</ele>
        <time>2023-06-21T08:12:11.000Z</time>
      </trkpt>
      <trkpt lat="43.52341" lon="6.40819">
        <ele>220.2</ele>
        <time>2023-06-21T08:12:21.000Z</time>
      </trkpt>
      <trkpt lat="43.52351" lon="6.40813">
        <ele>221.6</ele>
        <time>2023-06-21T08:12:31.000Z</time>
      </trkpt>
      <trkpt lat="43.52361" lon="6.40807">
        <ele>222.8</ele>
        <time>2023-06-21T08:12:41.000Z</time>
      </trkpt>
      <trkpt lat="43.52373" lon="6.408">
        <ele>225.1</ele>
        <time>2023-06-21T08:12:51.000Z</time>
      </trkpt>
      <trkpt lat="43.52384" lon="6.40789">
        <ele>225.6</ele>
        <time>2023-06-21T08:13:01.000Z</time>
      </trkpt>
      <trkpt lat="43.52391" lon="6.40781">
        <ele>229</ele>
        <time>2023-06-21T08:13:11.000Z</time>
      </trkpt>
      <trkpt lat="43.52395" lon="6.40775">
        <ele>230</ele>
        <time>2023-06-21T08:13:21.000Z</time>
      </trkpt>
      <trkpt lat="43.524" lon="6.40767">
        <ele>231.1</ele>
        <time>2023-06-21T08:13:31.000Z</time>
      </trkpt>
      <trkpt lat="43.52405" lon="6.40753">
        <ele>232.9</ele>
        <time>2023-06-21T08:13:41.000Z</time>
      </trkpt>
      <trkpt lat="43.52407" lon="6.4074">
        <ele>233.7</ele>
        <time>2023-06-21T08:13:51.000Z</time>
      </trkpt>
      <trkpt lat="43.52403" lon="6.40738">
        <ele>234.2</ele>
        <time>2023-06-21T08:14:01.000Z</time>
      </trkpt>
      <trkpt lat="43.52402" lon="6.40738">
        <ele>234.1</ele>
        <time>2023-06-21T08:14:11.000Z</time>
      </trkpt>
      <trkpt lat="43.52403" lon="6.40736">
        <ele>234.1</ele>
        <time>2023-06-21T08:14:21.000Z</time>
      </trkpt>
      <trkpt lat="43.524" lon="6.40736">
        <ele>234.1</ele>
        <time>2023-06-21T08:14:31.000Z</time>
      </trkpt>
      <trkpt lat="43.52399" lon="6.40734">
        <ele>234.1</ele>
        <time>2023-06-21T08:14:41.000Z</time>
      </trkpt>
      <trkpt lat="43.524" lon="6.40735">
        <ele>234.1</ele>
        <time>2023-06-21T08:14:51.000Z</time>
      </trkpt>
      <trkpt lat="43.52399" lon="6.40734">
        <ele>234</ele>
        <time>2023-06-21T08:15:01.000Z</time>
      </trkpt>
      <trkpt lat="43.52398" lon="6.40734">
        <ele>233.9</ele>
        <time>2023-06-21T08:15:11.000Z</time>
      </trkpt>
      <trkpt lat="43.52397" lon="6.40733">
        <ele>234</ele>
        <time>2023-06-21T08:15:21.000Z</time>
      </trkpt>
      <trkpt lat="43.52396" lon="6.40732">
        <ele>234</ele>
        <time>2023-06-21T08:15:31.000Z</time>
      </trkpt>
      <trkpt lat="43.52392" lon="6.40734">
        <ele>233.9</ele>
        <time>2023-06-21T08:15:41.000Z</time>
      </trkpt>
      <trkpt lat="43.52384" lon="6.40739">
        <ele>233.7</ele>
        <time>2023-06-21T08:15:51.000Z</time>
      </trkpt>
      <trkpt lat="43.52375" lon="6.40746">
        <ele>233.6</ele>
        <time>2023-06-21T08:16:01.000Z</time>
      </trkpt>
      <trkpt lat="43.52367" lon="6.40754">
        <ele>233.5</ele>
        <time>2023-06-21T08:16:11.000Z</time>
      </trkpt>
      <trkpt lat="43.52359" lon="6.4076">
        <ele>233.3</ele>
        <time>2023-06-21T08:16:21.000Z</time>
      </trkpt>
      <trkpt lat="43.5235" lon="6.40763">
        <ele>233.3</ele>
        <time>2023-06-21T08:16:31.000Z</time>
      </trkpt>
      <trkpt lat="43.52344" lon="6.40766">
        <ele>233.2</ele>
        <time>2023-06-21T08:16:41.000Z</time>
      </trkpt>
      <trkpt lat="43.52331" lon="6.40776">
        <ele>233.1</ele>
        <time>2023-06-21T08:16:51.000Z</time>
      </trkpt>
      <trkpt lat="43.52319" lon="6.4078">
        <ele>232.8</ele>
        <time>2023-06-21T08:17:01.000Z</time>
      </trkpt>
      <trkpt lat="43.52308" lon="6.40786">
        <ele>233</ele>
        <time>2023-06-21T08:17:11.000Z</time>
      </trkpt>
      <trkpt lat="43.52296" lon="6.40792">
        <ele>233</ele>
        <time>2023-06-21T08:17:21.000Z</time>
      </trkpt>
      <trkpt lat="43.52286" lon="6.40799">
        <ele>233</ele>
        <time>2023-06-21T08:17:31.000Z</time>
      </trkpt>
      <trkpt lat="43.52273" lon="6.40808">
        <ele>232.9</ele>
        <time>2023-06-21T08:17:41.000Z</time>
      </trkpt>
      <trkpt lat="43.52263" lon="6.40812">
        <ele>232.8</ele>
        <time>2023-06-21T08:17:51.000Z</time>
      </trkpt>
      <trkpt lat="43.52252" lon="6.40819">
        <ele>232.6</ele>
        <time>2023-06-21T08:18:01.000Z</time>
      </trkpt>
      <trkpt lat="43.52243" lon="6.40824">
        <ele>232.4</ele>
        <time>2023-06-21T08:18:11.000Z</time>
      </trkpt>
      <trkpt lat="43.52231" lon="6.40827">
        <ele>232.5</ele>
        <time>2023-06-21T08:18:21.000Z</time>
      </trkpt>
      <trkpt lat="43.5222" lon="6.40832">
        <ele>231.8</ele>
        <time>2023-06-21T08:18:31.000Z</time>
      </trkpt>
      <trkpt lat="43.5221" lon="6.4083">
        <ele>232.1</ele>
        <time>2023-06-21T08:18:41.000Z</time>
      </trkpt>
      <trkpt lat="43.52198" lon="6.40831">
        <ele>231.8</ele>
        <time>2023-06-21T08:18:51.000Z</time>
      </trkpt>
      <trkpt lat="43.52185" lon="6.40834">
        <ele>232</ele>
        <time>2023-06-21T08:19:01.000Z</time>
      </trkpt>
      <trkpt lat="43.52172" lon="6.40837">
        <ele>231.5</ele>
        <time>2023-06-21T08:19:11.000Z</time>
      </trkpt>
      <trkpt lat="43.52159" lon="6.40837">
        <ele>231</ele>
        <time>2023-06-21T08:19:21.000Z</time>
      </trkpt>
      <trkpt lat="43.52146" lon="6.40838">
        <ele>231.1</ele>
        <time>2023-06-21T08:19:31.000Z</time>
      </trkpt>
      <trkpt lat="43.52133" lon="6.40835">
        <ele>231.1</ele>
        <time>2023-06-21T08:19:41.000Z</time>
      </trkpt>
      <trkpt lat="43.52122" lon="6.40831">
        <ele>231.1</ele>
        <time>2023-06-21T08:19:51.000Z</time>
      </trkpt>
      <trkpt lat="43.52111" lon="6.40823">
        <ele>231</ele>
        <time>2023-06-21T08:20:01.000Z</time>
      </trkpt>
      <trkpt lat="43.52101" lon="6.40815">
        <ele>231</ele>
        <time>2023-06-21T08:20:11.000Z</time>
      </trkpt>
      <trkpt lat="43.5209" lon="6.40809">
        <ele>231.1</ele>
        <time>2023-06-21T08:20:21.000Z</time>
      </trkpt>
      <trkpt lat="43.52078" lon="6.40802">
        <ele>231</ele>
        <time>2023-06-21T08:20:31.000Z</time>
      </trkpt>
      <trkpt lat="43.52068" lon="6.40792">
        <ele>230.8</ele>
        <time>2023-06-21T08:20:41.000Z</time>
      </trkpt>
      <trkpt lat="43.52057" lon="6.40785">
        <ele>230.8</ele>
        <time>2023-06-21T08:20:51.000Z</time>
      </trkpt>
      <trkpt lat="43.52047" lon="6.40776">
        <ele>230.9</ele>
        <time>2023-06-21T08:21:01.000Z</time>
      </trkpt>
      <trkpt lat="43.52038" lon="6.40767">
        <ele>230.6</ele>
        <time>2023-06-21T08:21:11.000Z</time>
      </trkpt>
      <trkpt lat="43.52028" lon="6.40759">
        <ele>230.6</ele>
        <time>2023-06-21T08:21:21.000Z</time>
      </trkpt>
      <trkpt lat="43.52019" lon="6.40749">
        <ele>230.7</ele>
        <time>2023-06-21T08:21:31.000Z</time>
      </trkpt>
      <trkpt lat="43.52009" lon="6.40741">
        <ele>230.4</ele>
        <time>2023-06-21T08:21:41.000Z</time>
      </trkpt>
      <trkpt lat="43.51999" lon="6.40731">
        <ele>230.4</ele>
        <time>2023-06-21T08:21:51.000Z</time>
      </trkpt>
      <trkpt lat="43.51988" lon="6.40726">
        <ele>230.3</ele>
        <time>2023-06-21T08:22:01.000Z</time>
      </trkpt>
      <trkpt lat="43.51977" lon="6.40719">
        <ele>230.4</ele>
        <time>2023-06-21T08:22:11.000Z</time>
      </trkpt>
      <trkpt lat="43.51968" lon="6.40711">
        <ele>230.1</ele>
        <time>2023-06-21T08:22:21.000Z</time>
      </trkpt>
      <trkpt lat="43.5196" lon="6.40702">
        <ele>229.9</ele>
        <time>2023-06-21T08:22:31.000Z</time>
      </trkpt>
      <trkpt lat="43.51947" lon="6.40698">
        <ele>230.2</ele>
        <time>2023-06-21T08:22:41.000Z</time>
      </trkpt>
      <trkpt lat="43.51936" lon="6.40693">
        <ele>230.3</ele>
        <time>2023-06-21T08:22:51.000Z</time>
      </trkpt>
      <trkpt lat="43.51925" lon="6.4069">
        <ele>230.4</ele>
        <time>2023-06-21T08:23:01.000Z</time>
      </trkpt>
      <trkpt lat="43.51916" lon="6.40691">
        <ele>230.2</ele>
        <time>2023-06-21T08:23:11.000Z</time>
      </trkpt>
      <trkpt lat="43.51907" lon="6.40693">
        <ele>230.1</ele>
        <time>2023-06-21T08:23:21.000Z</time>
      </trkpt>
      <trkpt lat="43.51895" lon="6.40688">
        <ele>229.9</ele>
        <time>2023-06-21T08:23:31.000Z</time>
      </trkpt>
      <trkpt lat="43.51885" lon="6.40687">
        <ele>230.2</ele>
        <time>2023-06-21T08:23:41.000Z</time>
      </trkpt>
      <trkpt lat="43.51874" lon="6.40687">
        <ele>230.2</ele>
        <time>2023-06-21T08:23:51.000Z</time>
      </trkpt>
      <trkpt lat="43.51861" lon="6.40686">
        <ele>229.4</ele>
        <time>2023-06-21T08:24:01.000Z</time>
      </trkpt>
      <trkpt lat="43.51843" lon="6.40688">
        <ele>230.3</ele>
        <time>2023-06-21T08:24:11.000Z</time>
      </trkpt>
      <trkpt lat="43.51831" lon="6.40687">
        <ele>230.2</ele>
        <time>2023-06-21T08:24:21.000Z</time>
      </trkpt>
      <trkpt lat="43.51819" lon="6.40687">
        <ele>229.6</ele>
        <time>2023-06-21T08:24:31.000Z</time>
      </trkpt>
      <trkpt lat="43.51806" lon="6.40684">
        <ele>229.9</ele>
        <time>2023-06-21T08:24:41.000Z</time>
      </trkpt>
      <trkpt lat="43.51795" lon="6.40683">
        <ele>230</ele>
        <time>2023-06-21T08:24:51.000Z</time>
      </trkpt>
      <trkpt lat="43.51781" lon="6.40679">
        <ele>229.9</ele>
        <time>2023-06-21T08:25:01.000Z</time>
      </trkpt>
      <trkpt lat="43.51767" lon="6.40676">
        <ele>229.6</ele>
        <time>2023-06-21T08:25:11.000Z</time>
      </trkpt>
      <trkpt lat="43.51756" lon="6.40679">
        <ele>229.7</ele>
        <time>2023-06-21T08:25:21.000Z</time>
      </trkpt>
      <trkpt lat="43.51741" lon="6.40676">
        <ele>229.9</ele>
        <time>2023-06-21T08:25:31.000Z</time>
      </trkpt>
      <trkpt lat="43.51727" lon="6.40673">
        <ele>229.3</ele>
        <time>2023-06-21T08:25:41.000Z</time>
      </trkpt>
      <trkpt lat="43.51711" lon="6.40668">
        <ele>229.3</ele>
        <time>2023-06-21T08:25:51.000Z</time>
      </trkpt>
      <trkpt lat="43.51698" lon="6.40667">
        <ele>229.2</ele>
        <time>2023-06-21T08:26:01.000Z</time>
      </trkpt>
      <trkpt lat="43.5168" lon="6.40666">
        <ele>228.9</ele>
        <time>2023-06-21T08:26:11.000Z</time>
      </trkpt>
      <trkpt lat="43.51665" lon="6.40665">
        <ele>229.4</ele>
        <time>2023-06-21T08:26:21.000Z</time>
      </trkpt>
      <trkpt lat="43.51658" lon="6.40666">
        <ele>230.7</ele>
        <time>2023-06-21T08:26:31.000Z</time>
      </trkpt>
      <trkpt lat="43.51646" lon="6.40668">
        <ele>231.6</ele>
        <time>2023-06-21T08:26:41.000Z</time>
      </trkpt>
      <trkpt lat="43.51639" lon="6.40671">
        <ele>232.9</ele>
        <time>2023-06-21T08:26:51.000Z</time>
      </trkpt>
      <trkpt lat="43.51627" lon="6.40673">
        <ele>233.8</ele>
        <time>2023-06-21T08:27:01.000Z</time>
      </trkpt>
      <trkpt lat="43.51614" lon="6.40673">
        <ele>234.9</ele>
        <time>2023-06-21T08:27:11.000Z</time>
      </trkpt>
      <trkpt lat="43.51604" lon="6.4067">
        <ele>234.9</ele>
        <time>2023-06-21T08:27:21.000Z</time>
      </trkpt>
      <trkpt lat="43.51598" lon="6.40661">
        <ele>234.4</ele>
        <time>2023-06-21T08:27:31.000Z</time>
      </trkpt>
      <trkpt lat="43.51593" lon="6.40648">
        <ele>234.4</ele>
        <time>2023-06-21T08:27:41.000Z</time>
      </trkpt>
      <trkpt lat="43.51591" lon="6.40637">
        <ele>234.5</ele>
        <time>2023-06-21T08:27:51.000Z</time>
      </trkpt>
      <trkpt lat="43.51591" lon="6.4062">
        <ele>234.9</ele>
        <time>2023-06-21T08:28:01.000Z</time>
      </trkpt>
      <trkpt lat="43.51591" lon="6.40606">
        <ele>234.6</ele>
        <time>2023-06-21T08:28:11.000Z</time>
      </trkpt>
      <trkpt lat="43.51584" lon="6.40591">
        <ele>233.7</ele>
        <time>2023-06-21T08:28:21.000Z</time>
      </trkpt>
      <trkpt lat="43.5158" lon="6.40575">
        <ele>232.1</ele>
        <time>2023-06-21T08:28:31.000Z</time>
      </trkpt>
      <trkpt lat="43.51578" lon="6.40562">
        <ele>229.6</ele>
        <time>2023-06-21T08:28:41.000Z</time>
      </trkpt>
      <trkpt lat="43.51577" lon="6.40546">
        <ele>228.8</ele>
        <time>2023-06-21T08:28:51.000Z</time>
      </trkpt>
      <trkpt lat="43.51579" lon="6.40531">
        <ele>228.9</ele>
        <time>2023-06-21T08:29:01.000Z</time>
      </trkpt>
      <trkpt lat="43.51579" lon="6.40516">
        <ele>228.6</ele>
        <time>2023-06-21T08:29:11.000Z</time>
      </trkpt>
      <trkpt lat="43.51574" lon="6.40502">
        <ele>228.2</ele>
        <time>2023-06-21T08:29:21.000Z</time>
      </trkpt>
      <trkpt lat="43.5157" lon="6.40479">
        <ele>228.3</ele>
        <time>2023-06-21T08:29:31.000Z</time>
      </trkpt>
      <trkpt lat="43.51569" lon="6.40463">
        <ele>228.7</ele>
        <time>2023-06-21T08:29:41.000Z</time>
      </trkpt>
      <trkpt lat="43.5157" lon="6.40451">
        <ele>228</ele>
        <time>2023-06-21T08:29:51.000Z</time>
      </trkpt>
      <trkpt lat="43.51566" lon="6.40436">
        <ele>228.2</ele>
        <time>2023-06-21T08:30:01.000Z</time>
      </trkpt>
      <trkpt lat="43.51562" lon="6.40422">
        <ele>228.3</ele>
        <time>2023-06-21T08:30:11.000Z</time>
      </trkpt>
      <trkpt lat="43.51554" lon="6.40402">
        <ele>227.9</ele>
        <time>2023-06-21T08:30:21.000Z</time>
      </trkpt>
      <trkpt lat="43.51545" lon="6.40386">
        <ele>227.8</ele>
        <time>2023-06-21T08:30:31.000Z</time>
      </trkpt>
      <trkpt lat="43.51541" lon="6.40371">
        <ele>227.3</ele>
        <time>2023-06-21T08:30:41.000Z</time>
      </trkpt>
      <trkpt lat="43.51536" lon="6.40358">
        <ele>226.8</ele>
        <time>2023-06-21T08:30:51.000Z</time>
      </trkpt>
      <trkpt lat="43.51531" lon="6.40343">
        <ele>227.4</ele>
        <time>2023-06-21T08:31:01.000Z</time>
      </trkpt>
      <trkpt lat="43.51525" lon="6.40329">
        <ele>227.6</ele>
        <time>2023-06-21T08:31:11.000Z</time>
      </trkpt>
      <trkpt lat="43.51517" lon="6.40319">
        <ele>227.4</ele>
        <time>2023-06-21T08:31:21.000Z</time>
      </trkpt>
      <trkpt lat="43.51513" lon="6.40302">
        <ele>227.5</ele>
        <time>2023-06-21T08:31:31.000Z</time>
      </trkpt>
      <trkpt lat="43.51509" lon="6.4029">
        <ele>229.2</ele>
        <time>2023-06-21T08:31:41.000Z</time>
      </trkpt>
      <trkpt lat="43.51506" lon="6.40277">
        <ele>230.6</ele>
        <time>2023-06-21T08:31:51.000Z</time>
      </trkpt>
      <trkpt lat="43.515" lon="6.40265">
        <ele>231.5</ele>
        <time>2023-06-21T08:32:01.000Z</time>
      </trkpt>
      <trkpt lat="43.51492" lon="6.40255">
        <ele>232.8</ele>
        <time>2023-06-21T08:32:11.000Z</time>
      </trkpt>
      <trkpt lat="43.51483" lon="6.40245">
        <ele>235.3</ele>
        <time>2023-06-21T08:32:21.000Z</time>
      </trkpt>
      <trkpt lat="43.5148" lon="6.4023">
        <ele>237.2</ele>
        <time>2023-06-21T08:32:31.000Z</time>
      </trkpt>
      <trkpt lat="43.51488" lon="6.40219">
        <ele>239.5</ele>
        <time>2023-06-21T08:32:41.000Z</time>
      </trkpt>
      <trkpt lat="43.51494" lon="6.4021">
        <ele>240.4</ele>
        <time>2023-06-21T08:32:51.000Z</time>
      </trkpt>
      <trkpt lat="43.51502" lon="6.40201">
        <ele>241</ele>
        <time>2023-06-21T08:33:01.000Z</time>
      </trkpt>
      <trkpt lat="43.51505" lon="6.40193">
        <ele>241.1</ele>
        <time>2023-06-21T08:33:11.000Z</time>
      </trkpt>
      <trkpt lat="43.51511" lon="6.40184">
        <ele>241.9</ele>
        <time>2023-06-21T08:33:21.000Z</time>
      </trkpt>
      <trkpt lat="43.51511" lon="6.4018">
        <ele>241.8</ele>
        <time>2023-06-21T08:33:31.000Z</time>
      </trkpt>
      <trkpt lat="43.51511" lon="6.40173">
        <ele>241.5</ele>
        <time>2023-06-21T08:33:41.000Z</time>
      </trkpt>
      <trkpt lat="43.51516" lon="6.40166">
        <ele>241.2</ele>
        <time>2023-06-21T08:33:51.000Z</time>
      </trkpt>
      <trkpt lat="43.51519" lon="6.40154">
        <ele>240.2</ele>
        <time>2023-06-21T08:34:01.000Z</time>
      </trkpt>
      <trkpt lat="43.51522" lon="6.40143">
        <ele>237.6</ele>
        <time>2023-06-21T08:34:11.000Z</time>
      </trkpt>
      <trkpt lat="43.51529" lon="6.40129">
        <ele>236.6</ele>
        <time>2023-06-21T08:34:21.000Z</time>
      </trkpt>
      <trkpt lat="43.51536" lon="6.40113">
        <ele>235.5</ele>
        <time>2023-06-21T08:34:31.000Z</time>
      </trkpt>
      <trkpt lat="43.51545" lon="6.40101">
        <ele>235</ele>
        <time>2023-06-21T08:34:41.000Z</time>
      </trkpt>
      <trkpt lat="43.51554" lon="6.4009">
        <ele>233.5</ele>
        <time>2023-06-21T08:34:51.000Z</time>
      </trkpt>
      <trkpt lat="43.51562" lon="6.40076">
        <ele>232.4</ele>
        <time>2023-06-21T08:35:01.000Z</time>
      </trkpt>
      <trkpt lat="43.51571" lon="6.40068">
        <ele>230.3</ele>
        <time>2023-06-21T08:35:11.000Z</time>
      </trkpt>
      <trkpt lat="43.51583" lon="6.40061">
        <ele>229.3</ele>
        <time>2023-06-21T08:35:21.000Z</time>
      </trkpt>
      <trkpt lat="43.51591" lon="6.40051">
        <ele>228.1</ele>
        <time>2023-06-21T08:35:31.000Z</time>
      </trkpt>
      <trkpt lat="43.51601" lon="6.4004">
        <ele>227.8</ele>
        <time>2023-06-21T08:35:41.000Z</time>
      </trkpt>
      <trkpt lat="43.51606" lon="6.40024">
        <ele>227.7</ele>
        <time>2023-06-21T08:35:51.000Z</time>
      </trkpt>
      <trkpt lat="43.51613" lon="6.4001">
        <ele>227.4</ele>
        <time>2023-06-21T08:36:01.000Z</time>
      </trkpt>
      <trkpt lat="43.51616" lon="6.39993">
        <ele>227.4</ele>
        <time>2023-06-21T08:36:11.000Z</time>
      </trkpt>
      <trkpt lat="43.51619" lon="6.39975">
        <ele>227.1</ele>
        <time>2023-06-21T08:36:21.000Z</time>
      </trkpt>
      <trkpt lat="43.51622" lon="6.39956">
        <ele>226.8</ele>
        <time>2023-06-21T08:36:31.000Z</time>
      </trkpt>
      <trkpt lat="43.51619" lon="6.39937">
        <ele>226.7</ele>
        <time>2023-06-21T08:36:41.000Z</time>
      </trkpt>
      <trkpt lat="43.51613" lon="6.39917">
        <ele>226.8</ele>
        <time>2023-06-21T08:36:51.000Z</time>
      </trkpt>
      <trkpt lat="43.51615" lon="6.39901">
        <ele>226.3</ele>
        <time>2023-06-21T08:37:01.000Z</time>
      </trkpt>
      <trkpt lat="43.51613" lon="6.39887">
        <ele>226.3</ele>
        <time>2023-06-21T08:37:11.000Z</time>
      </trkpt>
      <trkpt lat="43.51606" lon="6.39874">
        <ele>226.3</ele>
        <time>2023-06-21T08:37:21.000Z</time>
      </trkpt>
      <trkpt lat="43.51598" lon="6.39862">
        <ele>226.9</ele>
        <time>2023-06-21T08:37:31.000Z</time>
      </trkpt>
      <trkpt lat="43.51587" lon="6.39853">
        <ele>230.3</ele>
        <time>2023-06-21T08:37:41.000Z</time>
      </trkpt>
      <trkpt lat="43.51574" lon="6.39849">
        <ele>231</ele>
        <time>2023-06-21T08:37:51.000Z</time>
      </trkpt>
      <trkpt lat="43.51562" lon="6.39843">
        <ele>231</ele>
        <time>2023-06-21T08:38:01.000Z</time>
      </trkpt>
      <trkpt lat="43.5156" lon="6.3984">
        <ele>230.8</ele>
        <time>2023-06-21T08:38:11.000Z</time>
      </trkpt>
      <trkpt lat="43.51557" lon="6.39832">
        <ele>230.3</ele>
        <time>2023-06-21T08:38:21.000Z</time>
      </trkpt>
      <trkpt lat="43.51547" lon="6.39818">
        <ele>229.1</ele>
        <time>2023-06-21T08:38:31.000Z</time>
      </trkpt>
      <trkpt lat="43.51539" lon="6.39804">
        <ele>229.1</ele>
        <time>2023-06-21T08:38:41.000Z</time>
      </trkpt>
      <trkpt lat="43.51533" lon="6.39792">
        <ele>229.9</ele>
        <time>2023-06-21T08:38:51.000Z</time>
      </trkpt>
      <trkpt lat="43.51535" lon="6.39777">
        <ele>229.3</ele>
        <time>2023-06-21T08:39:01.000Z</time>
      </trkpt>
      <trkpt lat="43.51539" lon="6.39765">
        <ele>228.9</ele>
        <time>2023-06-21T08:39:11.000Z</time>
      </trkpt>
      <trkpt lat="43.51544" lon="6.3975">
        <ele>231.7</ele>
        <time>2023-06-21T08:39:21.000Z</time>
      </trkpt>
      <trkpt lat="43.51549" lon="6.39734">
        <ele>232.3</ele>
        <time>2023-06-21T08:39:31.000Z</time>
      </trkpt>
      <trkpt lat="43.51551" lon="6.39721">
        <ele>235.1</ele>
        <time>2023-06-21T08:39:41.000Z</time>
      </trkpt>
      <trkpt lat="43.51555" lon="6.39709">
        <ele>235.3</ele>
        <time>2023-06-21T08:39:51.000Z</time>
      </trkpt>
      <trkpt lat="43.51557" lon="6.39703">
        <ele>237.6</ele>
        <time>2023-06-21T08:40:01.000Z</time>
      </trkpt>
      <trkpt lat="43.51559" lon="6.39699">
        <ele>237.7</ele>
        <time>2023-06-21T08:40:11.000Z</time>
      </trkpt>
      <trkpt lat="43.51557" lon="6.39698">
        <ele>237.9</ele>
        <time>2023-06-21T08:40:21.000Z</time>
      </trkpt>
      <trkpt lat="43.51556" lon="6.39697">
        <ele>237.8</ele>
        <time>2023-06-21T08:40:31.000Z</time>
      </trkpt>
      <trkpt lat="43.51558" lon="6.39699">
        <ele>237.6</ele>
        <time>2023-06-21T08:40:41.000Z</time>
      </trkpt>
      <trkpt lat="43.51555" lon="6.39698">
        <ele>237.8</ele>
        <time>2023-06-21T08:40:51.000Z</time>
      </trkpt>
      <trkpt lat="43.51555" lon="6.39697">
        <ele>237.7</ele>
        <time>2023-06-21T08:41:01.000Z</time>
      </trkpt>
      <trkpt lat="43.51556" lon="6.39696">
        <ele>237.6</ele>
        <time>2023-06-21T08:41:11.000Z</time>
      </trkpt>
      <trkpt lat="43.51557" lon="6.39695">
        <ele>237.9</ele>
        <time>2023-06-21T08:41:21.000Z</time>
      </trkpt>
      <trkpt lat="43.51557" lon="6.39693">
        <ele>237.8</ele>
        <time>2023-06-21T08:41:31.000Z</time>
      </trkpt>
      <trkpt lat="43.51562" lon="6.39695">
        <ele>237.4</ele>
        <time>2023-06-21T08:41:41.000Z</time>
      </trkpt>
      <trkpt lat="43.51559" lon="6.39692">
        <ele>237.4</ele>
        <time>2023-06-21T08:41:51.000Z</time>
      </trkpt>
      <trkpt lat="43.51556" lon="6.39692">
        <ele>237.3</ele>
        <time>2023-06-21T08:42:01.000Z</time>
      </trkpt>
      <trkpt lat="43.51555" lon="6.39691">
        <ele>237.2</ele>
        <time>2023-06-21T08:42:11.000Z</time>
      </trkpt>
      <trkpt lat="43.51555" lon="6.39689">
        <ele>237.2</ele>
        <time>2023-06-21T08:42:21.000Z</time>
      </trkpt>
      <trkpt lat="43.51552" lon="6.39689">
        <ele>237.2</ele>
        <time>2023-06-21T08:42:31.000Z</time>
      </trkpt>
      <trkpt lat="43.51552" lon="6.39688">
        <ele>237.2</ele>
        <time>2023-06-21T08:42:41.000Z</time>
      </trkpt>
      <trkpt lat="43.51551" lon="6.3969">
        <ele>237</ele>
        <time>2023-06-21T08:42:51.000Z</time>
      </trkpt>
      <trkpt lat="43.51553" lon="6.39689">
        <ele>237</ele>
        <time>2023-06-21T08:43:01.000Z</time>
      </trkpt>
      <trkpt lat="43.51553" lon="6.39687">
        <ele>237</ele>
        <time>2023-06-21T08:43:11.000Z</time>
      </trkpt>
      <trkpt lat="43.51553" lon="6.39687">
        <ele>237.1</ele>
        <time>2023-06-21T08:43:21.000Z</time>
      </trkpt>
      <trkpt lat="43.51551" lon="6.39685">
        <ele>236.9</ele>
        <time>2023-06-21T08:43:31.000Z</time>
      </trkpt>
      <trkpt lat="43.51548" lon="6.39686">
        <ele>237.1</ele>
        <time>2023-06-21T08:43:41.000Z</time>
      </trkpt>
      <trkpt lat="43.51546" lon="6.39688">
        <ele>237.1</ele>
        <time>2023-06-21T08:43:51.000Z</time>
      </trkpt>
      <trkpt lat="43.51546" lon="6.39688">
        <ele>237.2</ele>
        <time>2023-06-21T08:44:01.000Z</time>
      </trkpt>
      <trkpt lat="43.51547" lon="6.39689">
        <ele>237.4</ele>
        <time>2023-06-21T08:44:11.000Z</time>
      </trkpt>
      <trkpt lat="43.51549" lon="6.39689">
        <ele>237.5</ele>
        <time>2023-06-21T08:44:21.000Z</time>
      </trkpt>
      <trkpt lat="43.51551" lon="6.3969">
        <ele>237.6</ele>
        <time>2023-06-21T08:44:31.000Z</time>
      </trkpt>
      <trkpt lat="43.51553" lon="6.3969">
        <ele>237.5</ele>
        <time>2023-06-21T08:44:41.000Z</time>
      </trkpt>
      <trkpt lat="43.51555" lon="6.3969">
        <ele>237.4</ele>
        <time>2023-06-21T08:44:51.000Z</time>
      </trkpt>
      <trkpt lat="43.51557" lon="6.3969">
        <ele>237.4</ele>
        <time>2023-06-21T08:45:01.000Z</time>
      </trkpt>
      <trkpt lat="43.51561" lon="6.39682">
        <ele>237</ele>
        <time>2023-06-21T08:45:11.000Z</time>
      </trkpt>
      <trkpt lat="43.51566" lon="6.39672">
        <ele>236.8</ele>
        <time>2023-06-21T08:45:21.000Z</time>
      </trkpt>
      <trkpt lat="43.51568" lon="6.39659">
        <ele>236.2</ele>
        <time>2023-06-21T08:45:31.000Z</time>
      </trkpt>
      <trkpt lat="43.51568" lon="6.39641">
        <ele>235.2</ele>
        <time>2023-06-21T08:45:41.000Z</time>
      </trkpt>
      <trkpt lat="43.51569" lon="6.3963">
        <ele>233.8</ele>
        <time>2023-06-21T08:45:51.000Z</time>
      </trkpt>
      <trkpt lat="43.51572" lon="6.39617">
        <ele>232.3</ele>
        <time>2023-06-21T08:46:01.000Z</time>
      </trkpt>
      <trkpt lat="43.51574" lon="6.39599">
        <ele>230.8</ele>
        <time>2023-06-21T08:46:11.000Z</time>
      </trkpt>
      <trkpt lat="43.51575" lon="6.39586">
        <ele>229.3</ele>
        <time>2023-06-21T08:46:21.000Z</time>
      </trkpt>
      <trkpt lat="43.51579" lon="6.39571">
        <ele>228.3</ele>
        <time>2023-06-21T08:46:31.000Z</time>
      </trkpt>
      <trkpt lat="43.5158" lon="6.39555">
        <ele>226.9</ele>
        <time>2023-06-21T08:46:41.000Z</time>
      </trkpt>
      <trkpt lat="43.51582" lon="6.39542">
        <ele>225.6</ele>
        <time>2023-06-21T08:46:51.000Z</time>
      </trkpt>
      <trkpt lat="43.51587" lon="6.39527">
        <ele>224.9</ele>
        <time>2023-06-21T08:47:01.000Z</time>
      </trkpt>
      <trkpt lat="43.51592" lon="6.39516">
        <ele>223.9</ele>
        <time>2023-06-21T08:47:11.000Z</time>
      </trkpt>
      <trkpt lat="43.51602" lon="6.39505">
        <ele>223.2</ele>
        <time>2023-06-21T08:47:21.000Z</time>
      </trkpt>
      <trkpt lat="43.51611" lon="6.39491">
        <ele>222.4</ele>
        <time>2023-06-21T08:47:31.000Z</time>
      </trkpt>
      <trkpt lat="43.51616" lon="6.39482">
        <ele>221.3</ele>
        <time>2023-06-21T08:47:41.000Z</time>
      </trkpt>
      <trkpt lat="43.51629" lon="6.39479">
        <ele>219.9</ele>
        <time>2023-06-21T08:47:51.000Z</time>
      </trkpt>
      <trkpt lat="43.51638" lon="6.39476">
        <ele>218.7</ele>
        <time>2023-06-21T08:48:01.000Z</time>
      </trkpt>
      <trkpt lat="43.51642" lon="6.39472">
        <ele>218.7</ele>
        <time>2023-06-21T08:48:11.000Z</time>
      </trkpt>
      <trkpt lat="43.51649" lon="6.39469">
        <ele>218.5</ele>
        <time>2023-06-21T08:48:21.000Z</time>
      </trkpt>
      <trkpt lat="43.51645" lon="6.39467">
        <ele>218.4</ele>
        <time>2023-06-21T08:48:31.000Z</time>
      </trkpt>
      <trkpt lat="43.51644" lon="6.39469">
        <ele>211.7</ele>
        <time>2023-06-21T08:48:41.000Z</time>
      </trkpt>
      <trkpt lat="43.51649" lon="6.39462">
        <ele>218</ele>
        <time>2023-06-21T08:48:51.000Z</time>
      </trkpt>
      <trkpt lat="43.51663" lon="6.39451">
        <ele>218.2</ele>
        <time>2023-06-21T08:49:01.000Z</time>
      </trkpt>
      <trkpt lat="43.51677" lon="6.39441">
        <ele>218.2</ele>
        <time>2023-06-21T08:49:11.000Z</time>
      </trkpt>
      <trkpt lat="43.51684" lon="6.39431">
        <ele>217.7</ele>
        <time>2023-06-21T08:49:21.000Z</time>
      </trkpt>
      <trkpt lat="43.5169" lon="6.39423">
        <ele>217.1</ele>
        <time>2023-06-21T08:49:31.000Z</time>
      </trkpt>
      <trkpt lat="43.51702" lon="6.39412">
        <ele>216.7</ele>
        <time>2023-06-21T08:49:41.000Z</time>
      </trkpt>
      <trkpt lat="43.51712" lon="6.39393">
        <ele>215.3</ele>
        <time>2023-06-21T08:49:51.000Z</time>
      </trkpt>
      <trkpt lat="43.51721" lon="6.39378">
        <ele>215.2</ele>
        <time>2023-06-21T08:50:01.000Z</time>
      </trkpt>
      <trkpt lat="43.51728" lon="6.3936">
        <ele>213.8</ele>
        <time>2023-06-21T08:50:11.000Z</time>
      </trkpt>
      <trkpt lat="43.51734" lon="6.39335">
        <ele>213.2</ele>
        <time>2023-06-21T08:50:21.000Z</time>
      </trkpt>
      <trkpt lat="43.51739" lon="6.39312">
        <ele>212.7</ele>
        <time>2023-06-21T08:50:31.000Z</time>
      </trkpt>
      <trkpt lat="43.51744" lon="6.39291">
        <ele>212.8</ele>
        <time>2023-06-21T08:50:41.000Z</time>
      </trkpt>
      <trkpt lat="43.51745" lon="6.39268">
        <ele>212.7</ele>
        <time>2023-06-21T08:50:51.000Z</time>
      </trkpt>
      <trkpt lat="43.51746" lon="6.39248">
        <ele>211.6</ele>
        <time>2023-06-21T08:51:01.000Z</time>
      </trkpt>
      <trkpt lat="43.51744" lon="6.39235">
        <ele>211.8</ele>
        <time>2023-06-21T08:51:11.000Z</time>
      </trkpt>
      <trkpt lat="43.51741" lon="6.39221">
        <ele>211</ele>
        <time>2023-06-21T08:51:21.000Z</time>
      </trkpt>
      <trkpt lat="43.51738" lon="6.39205">
        <ele>210.7</ele>
        <time>2023-06-21T08:51:31.000Z</time>
      </trkpt>
      <trkpt lat="43.51732" lon="6.3919">
        <ele>210.4</ele>
        <time>2023-06-21T08:51:41.000Z</time>
      </trkpt>
      <trkpt lat="43.51722" lon="6.39171">
        <ele>210.5</ele>
        <time>2023-06-21T08:51:51.000Z</time>
      </trkpt>
      <trkpt lat="43.51717" lon="6.3916">
        <ele>210.1</ele>
        <time>2023-06-21T08:52:01.000Z</time>
      </trkpt>
      <trkpt lat="43.51702" lon="6.39143">
        <ele>208.8</ele>
        <time>2023-06-21T08:52:11.000Z</time>
      </trkpt>
      <trkpt lat="43.51693" lon="6.39128">
        <ele>209.2</ele>
        <time>2023-06-21T08:52:21.000Z</time>
      </trkpt>
      <trkpt lat="43.51682" lon="6.39117">
        <ele>208.3</ele>
        <time>2023-06-21T08:52:31.000Z</time>
      </trkpt>
      <trkpt lat="43.51667" lon="6.39104">
        <ele>208.9</ele>
        <time>2023-06-21T08:52:41.000Z</time>
      </trkpt>
      <trkpt lat="43.51657" lon="6.391">
        <ele>208.2</ele>
        <time>2023-06-21T08:52:51.000Z</time>
      </trkpt>
      <trkpt lat="43.51641" lon="6.39091">
        <ele>208.2</ele>
        <time>2023-06-21T08:53:01.000Z</time>
      </trkpt>
      <trkpt lat="43.51633" lon="6.39088">
        <ele>207.7</ele>
        <time>2023-06-21T08:53:11.000Z</time>
      </trkpt>
      <trkpt lat="43.51617" lon="6.39082">
        <ele>207.2</ele>
        <time>2023-06-21T08:53:21.000Z</time>
      </trkpt>
      <trkpt lat="43.51605" lon="6.39079">
        <ele>206.2</ele>
        <time>2023-06-21T08:53:31.000Z</time>
      </trkpt>
      <trkpt lat="43.5159" lon="6.39075">
        <ele>206.6</ele>
        <time>2023-06-21T08:53:41.000Z</time>
      </trkpt>
      <trkpt lat="43.51581" lon="6.39072">
        <ele>205.9</ele>
        <time>2023-06-21T08:53:51.000Z</time>
      </trkpt>
      <trkpt lat="43.51567" lon="6.39069">
        <ele>206.2</ele>
        <time>2023-06-21T08:54:01.000Z</time>
      </trkpt>
      <trkpt lat="43.51556" lon="6.39066">
        <ele>204.8</ele>
        <time>2023-06-21T08:54:11.000Z</time>
      </trkpt>
      <trkpt lat="43.51541" lon="6.39059">
        <ele>205.3</ele>
        <time>2023-06-21T08:54:21.000Z</time>
      </trkpt>
      <trkpt lat="43.51532" lon="6.39056">
        <ele>204.6</ele>
        <time>2023-06-21T08:54:31.000Z</time>
      </trkpt>
      <trkpt lat="43.51516" lon="6.39052">
        <ele>204.2</ele>
        <time>2023-06-21T08:54:41.000Z</time>
      </trkpt>
      <trkpt lat="43.51507" lon="6.3905">
        <ele>203.9</ele>
        <time>2023-06-21T08:54:51.000Z</time>
      </trkpt>
      <trkpt lat="43.5149" lon="6.39041">
        <ele>203.5</ele>
        <time>2023-06-21T08:55:01.000Z</time>
      </trkpt>
      <trkpt lat="43.51482" lon="6.39037">
        <ele>203</ele>
        <time>2023-06-21T08:55:11.000Z</time>
      </trkpt>
      <trkpt lat="43.5147" lon="6.39027">
        <ele>201.8</ele>
        <time>2023-06-21T08:55:21.000Z</time>
      </trkpt>
      <trkpt lat="43.51461" lon="6.39018">
        <ele>202.3</ele>
        <time>2023-06-21T08:55:31.000Z</time>
      </trkpt>
      <trkpt lat="43.51451" lon="6.39005">
        <ele>201.6</ele>
        <time>2023-06-21T08:55:41.000Z</time>
      </trkpt>
      <trkpt lat="43.51444" lon="6.38994">
        <ele>201.5</ele>
        <time>2023-06-21T08:55:51.000Z</time>
      </trkpt>
      <trkpt lat="43.51437" lon="6.38978">
        <ele>201.3</ele>
        <time>2023-06-21T08:56:01.000Z</time>
      </trkpt>
      <trkpt lat="43.51429" lon="6.38963">
        <ele>201</ele>
        <time>2023-06-21T08:56:11.000Z</time>
      </trkpt>
      <trkpt lat="43.51422" lon="6.38949">
        <ele>200.6</ele>
        <time>2023-06-21T08:56:21.000Z</time>
      </trkpt>
      <trkpt lat="43.51418" lon="6.38939">
        <ele>200.3</ele>
        <time>2023-06-21T08:56:31.000Z</time>
      </trkpt>
      <trkpt lat="43.51415" lon="6.38926">
        <ele>201.9</ele>
        <time>2023-06-21T08:56:41.000Z</time>
      </trkpt>
      <trkpt lat="43.5141" lon="6.38911">
        <ele>205.4</ele>
        <time>2023-06-21T08:56:51.000Z</time>
      </trkpt>
      <trkpt lat="43.51406" lon="6.38906">
        <ele>206.2</ele>
        <time>2023-06-21T08:57:01.000Z</time>
      </trkpt>
      <trkpt lat="43.51398" lon="6.38906">
        <ele>206</ele>
        <time>2023-06-21T08:57:11.000Z</time>
      </trkpt>
      <trkpt lat="43.51401" lon="6.38907">
        <ele>205.5</ele>
        <time>2023-06-21T08:57:21.000Z</time>
      </trkpt>
      <trkpt lat="43.51405" lon="6.38906">
        <ele>205.6</ele>
        <time>2023-06-21T08:57:31.000Z</time>
      </trkpt>
      <trkpt lat="43.51401" lon="6.38906">
        <ele>205.5</ele>
        <time>2023-06-21T08:57:41.000Z</time>
      </trkpt>
      <trkpt lat="43.51404" lon="6.38907">
        <ele>205.5</ele>
        <time>2023-06-21T08:57:51.000Z</time>
      </trkpt>
      <trkpt lat="43.51408" lon="6.3891">
        <ele>205.5</ele>
        <time>2023-06-21T08:58:01.000Z</time>
      </trkpt>
      <trkpt lat="43.51411" lon="6.38909">
        <ele>205.5</ele>
        <time>2023-06-21T08:58:11.000Z</time>
      </trkpt>
      <trkpt lat="43.51409" lon="6.38906">
        <ele>205.5</ele>
        <time>2023-06-21T08:58:21.000Z</time>
      </trkpt>
      <trkpt lat="43.5141" lon="6.3891">
        <ele>205.5</ele>
        <time>2023-06-21T08:58:31.000Z</time>
      </trkpt>
      <trkpt lat="43.51411" lon="6.38912">
        <ele>205.6</ele>
        <time>2023-06-21T08:58:41.000Z</time>
      </trkpt>
      <trkpt lat="43.51408" lon="6.38912">
        <ele>205.9</ele>
        <time>2023-06-21T08:58:51.000Z</time>
      </trkpt>
      <trkpt lat="43.51408" lon="6.38911">
        <ele>205.7</ele>
        <time>2023-06-21T08:59:01.000Z</time>
      </trkpt>
      <trkpt lat="43.51407" lon="6.38912">
        <ele>205.7</ele>
        <time>2023-06-21T08:59:11.000Z</time>
      </trkpt>
      <trkpt lat="43.51407" lon="6.38912">
        <ele>205.5</ele>
        <time>2023-06-21T08:59:21.000Z</time>
      </trkpt>
      <trkpt lat="43.51409" lon="6.38914">
        <ele>205.8</ele>
        <time>2023-06-21T08:59:31.000Z</time>
      </trkpt>
      <trkpt lat="43.51404" lon="6.38914">
        <ele>205.8</ele>
        <time>2023-06-21T08:59:41.000Z</time>
      </trkpt>
      <trkpt lat="43.51401" lon="6.38913">
        <ele>205.5</ele>
        <time>2023-06-21T08:59:51.000Z</time>
      </trkpt>
      <trkpt lat="43.514" lon="6.38912">
        <ele>205.5</ele>
        <time>2023-06-21T09:00:01.000Z</time>
      </trkpt>
      <trkpt lat="43.51398" lon="6.38914">
        <ele>205.4</ele>
        <time>2023-06-21T09:00:11.000Z</time>
      </trkpt>
      <trkpt lat="43.51398" lon="6.38914">
        <ele>205.1</ele>
        <time>2023-06-21T09:00:21.000Z</time>
      </trkpt>
      <trkpt lat="43.51396" lon="6.38913">
        <ele>205</ele>
        <time>2023-06-21T09:00:31.000Z</time>
      </trkpt>
      <trkpt lat="43.51396" lon="6.38913">
        <ele>205.1</ele>
        <time>2023-06-21T09:00:41.000Z</time>
      </trkpt>
      <trkpt lat="43.51396" lon="6.38913">
        <ele>204.9</ele>
        <time>2023-06-21T09:00:51.000Z</time>
      </trkpt>
      <trkpt lat="43.51391" lon="6.38916">
        <ele>204.5</ele>
        <time>2023-06-21T09:01:01.000Z</time>
      </trkpt>
      <trkpt lat="43.51381" lon="6.38921">
        <ele>203.9</ele>
        <time>2023-06-21T09:01:11.000Z</time>
      </trkpt>
      <trkpt lat="43.51372" lon="6.38924">
        <ele>203.5</ele>
        <time>2023-06-21T09:01:21.000Z</time>
      </trkpt>
      <trkpt lat="43.51362" lon="6.38927">
        <ele>202.8</ele>
        <time>2023-06-21T09:01:31.000Z</time>
      </trkpt>
      <trkpt lat="43.51351" lon="6.38931">
        <ele>201.7</ele>
        <time>2023-06-21T09:01:41.000Z</time>
      </trkpt>
      <trkpt lat="43.51338" lon="6.38935">
        <ele>201.4</ele>
        <time>2023-06-21T09:01:51.000Z</time>
      </trkpt>
      <trkpt lat="43.51326" lon="6.38941">
        <ele>200.8</ele>
        <time>2023-06-21T09:02:01.000Z</time>
      </trkpt>
      <trkpt lat="43.51314" lon="6.38944">
        <ele>200</ele>
        <time>2023-06-21T09:02:11.000Z</time>
      </trkpt>
      <trkpt lat="43.51303" lon="6.38948">
        <ele>199</ele>
        <time>2023-06-21T09:02:21.000Z</time>
      </trkpt>
      <trkpt lat="43.51292" lon="6.3895">
        <ele>198.5</ele>
        <time>2023-06-21T09:02:31.000Z</time>
      </trkpt>
      <trkpt lat="43.51281" lon="6.38953">
        <ele>197.5</ele>
        <time>2023-06-21T09:02:41.000Z</time>
      </trkpt>
      <trkpt lat="43.51271" lon="6.38957">
        <ele>196.3</ele>
        <time>2023-06-21T09:02:51.000Z</time>
      </trkpt>
      <trkpt lat="43.51261" lon="6.38959">
        <ele>195.4</ele>
        <time>2023-06-21T09:03:01.000Z</time>
      </trkpt>
      <trkpt lat="43.51255" lon="6.38964">
        <ele>195.1</ele>
        <time>2023-06-21T09:03:11.000Z</time>
      </trkpt>
      <trkpt lat="43.51249" lon="6.38967">
        <ele>194.7</ele>
        <time>2023-06-21T09:03:21.000Z</time>
      </trkpt>
      <trkpt lat="43.51234" lon="6.38973">
        <ele>192.4</ele>
        <time>2023-06-21T09:03:31.000Z</time>
      </trkpt>
      <trkpt lat="43.5122" lon="6.38976">
        <ele>192.6</ele>
        <time>2023-06-21T09:03:41.000Z</time>
      </trkpt>
      <trkpt lat="43.51209" lon="6.38981">
        <ele>190.8</ele>
        <time>2023-06-21T09:03:51.000Z</time>
      </trkpt>
      <trkpt lat="43.51196" lon="6.38986">
        <ele>191.1</ele>
        <time>2023-06-21T09:04:01.000Z</time>
      </trkpt>
      <trkpt lat="43.51183" lon="6.38991">
        <ele>189.8</ele>
        <time>2023-06-21T09:04:11.000Z</time>
      </trkpt>
      <trkpt lat="43.51173" lon="6.38998">
        <ele>189.2</ele>
        <time>2023-06-21T09:04:21.000Z</time>
      </trkpt>
      <trkpt lat="43.51162" lon="6.39001">
        <ele>187.9</ele>
        <time>2023-06-21T09:04:31.000Z</time>
      </trkpt>
      <trkpt lat="43.51152" lon="6.39003">
        <ele>186.9</ele>
        <time>2023-06-21T09:04:41.000Z</time>
      </trkpt>
      <trkpt lat="43.5114" lon="6.3901">
        <ele>185.4</ele>
        <time>2023-06-21T09:04:51.000Z</time>
      </trkpt>
      <trkpt lat="43.51129" lon="6.39013">
        <ele>183.8</ele>
        <time>2023-06-21T09:05:01.000Z</time>
      </trkpt>
      <trkpt lat="43.51118" lon="6.39019">
        <ele>183.1</ele>
        <time>2023-06-21T09:05:11.000Z</time>
      </trkpt>
      <trkpt lat="43.51104" lon="6.39024">
        <ele>182.2</ele>
        <time>2023-06-21T09:05:21.000Z</time>
      </trkpt>
      <trkpt lat="43.51094" lon="6.39026">
        <ele>180.2</ele>
        <time>2023-06-21T09:05:31.000Z</time>
      </trkpt>
      <trkpt lat="43.51079" lon="6.39032">
        <ele>179.1</ele>
        <time>2023-06-21T09:05:41.000Z</time>
      </trkpt>
      <trkpt lat="43.51068" lon="6.39033">
        <ele>177.6</ele>
        <time>2023-06-21T09:05:51.000Z</time>
      </trkpt>
      <trkpt lat="43.51056" lon="6.39037">
        <ele>177.3</ele>
        <time>2023-06-21T09:06:01.000Z</time>
      </trkpt>
      <trkpt lat="43.51042" lon="6.39042">
        <ele>177.7</ele>
        <time>2023-06-21T09:06:11.000Z</time>
      </trkpt>
      <trkpt lat="43.51033" lon="6.39047">
        <ele>178</ele>
        <time>2023-06-21T09:06:21.000Z</time>
      </trkpt>
      <trkpt lat="43.51023" lon="6.39053">
        <ele>177.7</ele>
        <time>2023-06-21T09:06:31.000Z</time>
      </trkpt>
      <trkpt lat="43.51012" lon="6.39056">
        <ele>177.7</ele>
        <time>2023-06-21T09:06:41.000Z</time>
      </trkpt>
      <trkpt lat="43.50999" lon="6.39056">
        <ele>177.4</ele>
        <time>2023-06-21T09:06:51.000Z</time>
      </trkpt>
      <trkpt lat="43.50989" lon="6.39059">
        <ele>178.1</ele>
        <time>2023-06-21T09:07:01.000Z</time>
      </trkpt>
      <trkpt lat="43.50976" lon="6.39058">
        <ele>177.4</ele>
        <time>2023-06-21T09:07:11.000Z</time>
      </trkpt>
      <trkpt lat="43.50963" lon="6.3905">
        <ele>177.6</ele>
        <time>2023-06-21T09:07:21.000Z</time>
      </trkpt>
      <trkpt lat="43.5095" lon="6.39049">
        <ele>178</ele>
        <time>2023-06-21T09:07:31.000Z</time>
      </trkpt>
      <trkpt lat="43.5094" lon="6.39048">
        <ele>178.1</ele>
        <time>2023-06-21T09:07:41.000Z</time>
      </trkpt>
      <trkpt lat="43.50927" lon="6.39045">
        <ele>178.9</ele>
        <time>2023-06-21T09:07:51.000Z</time>
      </trkpt>
      <trkpt lat="43.50916" lon="6.39043">
        <ele>178.9</ele>
        <time>2023-06-21T09:08:01.000Z</time>
      </trkpt>
      <trkpt lat="43.50903" lon="6.39039">
        <ele>179.4</ele>
        <time>2023-06-21T09:08:11.000Z</time>
      </trkpt>
      <trkpt lat="43.50892" lon="6.39036">
        <ele>179.6</ele>
        <time>2023-06-21T09:08:21.000Z</time>
      </trkpt>
      <trkpt lat="43.5088" lon="6.39037">
        <ele>178</ele>
        <time>2023-06-21T09:08:31.000Z</time>
      </trkpt>
      <trkpt lat="43.50868" lon="6.39035">
        <ele>179.6</ele>
        <time>2023-06-21T09:08:41.000Z</time>
      </trkpt>
      <trkpt lat="43.50855" lon="6.39031">
        <ele>181.5</ele>
        <time>2023-06-21T09:08:51.000Z</time>
      </trkpt>
      <trkpt lat="43.50843" lon="6.39024">
        <ele>181.4</ele>
        <time>2023-06-21T09:09:01.000Z</time>
      </trkpt>
      <trkpt lat="43.50832" lon="6.39015">
        <ele>180.9</ele>
        <time>2023-06-21T09:09:11.000Z</time>
      </trkpt>
      <trkpt lat="43.5082" lon="6.39004">
        <ele>181.1</ele>
        <time>2023-06-21T09:09:21.000Z</time>
      </trkpt>
      <trkpt lat="43.5081" lon="6.38994">
        <ele>180.6</ele>
        <time>2023-06-21T09:09:31.000Z</time>
      </trkpt>
      <trkpt lat="43.50804" lon="6.38991">
        <ele>180.6</ele>
        <time>2023-06-21T09:09:41.000Z</time>
      </trkpt>
      <trkpt lat="43.50794" lon="6.38979">
        <ele>181.1</ele>
        <time>2023-06-21T09:09:51.000Z</time>
      </trkpt>
      <trkpt lat="43.50784" lon="6.38967">
        <ele>181.5</ele>
        <time>2023-06-21T09:10:01.000Z</time>
      </trkpt>
      <trkpt lat="43.50776" lon="6.38959">
        <ele>181.5</ele>
        <time>2023-06-21T09:10:11.000Z</time>
      </trkpt>
      <trkpt lat="43.50771" lon="6.3894">
        <ele>179</ele>
        <time>2023-06-21T09:10:21.000Z</time>
      </trkpt>
      <trkpt lat="43.5077" lon="6.38927">
        <ele>178</ele>
        <time>2023-06-21T09:10:31.000Z</time>
      </trkpt>
      <trkpt lat="43.5077" lon="6.38911">
        <ele>176.3</ele>
        <time>2023-06-21T09:10:41.000Z</time>
      </trkpt>
      <trkpt lat="43.5077" lon="6.38895">
        <ele>174.9</ele>
        <time>2023-06-21T09:10:51.000Z</time>
      </trkpt>
      <trkpt lat="43.50767" lon="6.38878">
        <ele>173.1</ele>
        <time>2023-06-21T09:11:01.000Z</time>
      </trkpt>
      <trkpt lat="43.5076" lon="6.38867">
        <ele>172.1</ele>
        <time>2023-06-21T09:11:11.000Z</time>
      </trkpt>
      <trkpt lat="43.50745" lon="6.38867">
        <ele>171.1</ele>
        <time>2023-06-21T09:11:21.000Z</time>
      </trkpt>
      <trkpt lat="43.50737" lon="6.38882">
        <ele>170.4</ele>
        <time>2023-06-21T09:11:31.000Z</time>
      </trkpt>
      <trkpt lat="43.50737" lon="6.38894">
        <ele>169.7</ele>
        <time>2023-06-21T09:11:41.000Z</time>
      </trkpt>
      <trkpt lat="43.50735" lon="6.3891">
        <ele>169.3</ele>
        <time>2023-06-21T09:11:51.000Z</time>
      </trkpt>
      <trkpt lat="43.50728" lon="6.38923">
        <ele>168.9</ele>
        <time>2023-06-21T09:12:01.000Z</time>
      </trkpt>
      <trkpt lat="43.50726" lon="6.38926">
        <ele>168.9</ele>
        <time>2023-06-21T09:12:11.000Z</time>
      </trkpt>
      <trkpt lat="43.50725" lon="6.3893">
        <ele>169</ele>
        <time>2023-06-21T09:12:21.000Z</time>
      </trkpt>
      <trkpt lat="43.50726" lon="6.38931">
        <ele>168.9</ele>
        <time>2023-06-21T09:12:31.000Z</time>
      </trkpt>
      <trkpt lat="43.50727" lon="6.38934">
        <ele>168.9</ele>
        <time>2023-06-21T09:12:41.000Z</time>
      </trkpt>
      <trkpt lat="43.50725" lon="6.3893">
        <ele>168.8</ele>
        <time>2023-06-21T09:12:51.000Z</time>
      </trkpt>
      <trkpt lat="43.50726" lon="6.38938">
        <ele>168.7</ele>
        <time>2023-06-21T09:13:01.000Z</time>
      </trkpt>
      <trkpt lat="43.5073" lon="6.38944">
        <ele>168.8</ele>
        <time>2023-06-21T09:13:11.000Z</time>
      </trkpt>
      <trkpt lat="43.50732" lon="6.38944">
        <ele>168.7</ele>
        <time>2023-06-21T09:13:21.000Z</time>
      </trkpt>
      <trkpt lat="43.5073" lon="6.3894">
        <ele>168.8</ele>
        <time>2023-06-21T09:13:31.000Z</time>
      </trkpt>
      <trkpt lat="43.50734" lon="6.38938">
        <ele>168.9</ele>
        <time>2023-06-21T09:13:41.000Z</time>
      </trkpt>
      <trkpt lat="43.50736" lon="6.38938">
        <ele>169</ele>
        <time>2023-06-21T09:13:51.000Z</time>
      </trkpt>
      <trkpt lat="43.50735" lon="6.38937">
        <ele>168.6</ele>
        <time>2023-06-21T09:14:01.000Z</time>
      </trkpt>
      <trkpt lat="43.50736" lon="6.38939">
        <ele>169.2</ele>
        <time>2023-06-21T09:14:11.000Z</time>
      </trkpt>
      <trkpt lat="43.50738" lon="6.38938">
        <ele>169.4</ele>
        <time>2023-06-21T09:14:21.000Z</time>
      </trkpt>
      <trkpt lat="43.50741" lon="6.38939">
        <ele>169.5</ele>
        <time>2023-06-21T09:14:31.000Z</time>
      </trkpt>
      <trkpt lat="43.50734" lon="6.38943">
        <ele>169.3</ele>
        <time>2023-06-21T09:14:41.000Z</time>
      </trkpt>
      <trkpt lat="43.5073" lon="6.38948">
        <ele>169.3</ele>
        <time>2023-06-21T09:14:51.000Z</time>
      </trkpt>
      <trkpt lat="43.50727" lon="6.3895">
        <ele>169.3</ele>
        <time>2023-06-21T09:15:01.000Z</time>
      </trkpt>
      <trkpt lat="43.50725" lon="6.38954">
        <ele>169.1</ele>
        <time>2023-06-21T09:15:11.000Z</time>
      </trkpt>
      <trkpt lat="43.50723" lon="6.38962">
        <ele>169.5</ele>
        <time>2023-06-21T09:15:21.000Z</time>
      </trkpt>
      <trkpt lat="43.50722" lon="6.38961">
        <ele>169.5</ele>
        <time>2023-06-21T09:15:31.000Z</time>
      </trkpt>
      <trkpt lat="43.50721" lon="6.38965">
        <ele>169.5</ele>
        <time>2023-06-21T09:15:41.000Z</time>
      </trkpt>
      <trkpt lat="43.50722" lon="6.38972">
        <ele>169.7</ele>
        <time>2023-06-21T09:15:51.000Z</time>
      </trkpt>
      <trkpt lat="43.50721" lon="6.38976">
        <ele>169.9</ele>
        <time>2023-06-21T09:16:01.000Z</time>
      </trkpt>
      <trkpt lat="43.50714" lon="6.38983">
        <ele>170.1</ele>
        <time>2023-06-21T09:16:11.000Z</time>
      </trkpt>
      <trkpt lat="43.50709" lon="6.38989">
        <ele>170</ele>
        <time>2023-06-21T09:16:21.000Z</time>
      </trkpt>
      <trkpt lat="43.507" lon="6.38994">
        <ele>170.6</ele>
        <time>2023-06-21T09:16:31.000Z</time>
      </trkpt>
      <trkpt lat="43.50692" lon="6.38991">
        <ele>170.4</ele>
        <time>2023-06-21T09:16:41.000Z</time>
      </trkpt>
      <trkpt lat="43.50684" lon="6.38991">
        <ele>172.4</ele>
        <time>2023-06-21T09:16:51.000Z</time>
      </trkpt>
      <trkpt lat="43.50682" lon="6.38991">
        <ele>172.7</ele>
        <time>2023-06-21T09:17:01.000Z</time>
      </trkpt>
      <trkpt lat="43.50671" lon="6.38991">
        <ele>172.9</ele>
        <time>2023-06-21T09:17:11.000Z</time>
      </trkpt>
      <trkpt lat="43.50664" lon="6.38993">
        <ele>174.2</ele>
        <time>2023-06-21T09:17:21.000Z</time>
      </trkpt>
      <trkpt lat="43.50653" lon="6.38999">
        <ele>174.6</ele>
        <time>2023-06-21T09:17:31.000Z</time>
      </trkpt>
      <trkpt lat="43.50641" lon="6.39006">
        <ele>175.8</ele>
        <time>2023-06-21T09:17:41.000Z</time>
      </trkpt>
      <trkpt lat="43.50633" lon="6.39002">
        <ele>176.2</ele>
        <time>2023-06-21T09:17:51.000Z</time>
      </trkpt>
      <trkpt lat="43.5063" lon="6.38995">
        <ele>178.8</ele>
        <time>2023-06-21T09:18:01.000Z</time>
      </trkpt>
      <trkpt lat="43.50628" lon="6.38986">
        <ele>178.7</ele>
        <time>2023-06-21T09:18:11.000Z</time>
      </trkpt>
      <trkpt lat="43.50627" lon="6.38979">
        <ele>178.9</ele>
        <time>2023-06-21T09:18:21.000Z</time>
      </trkpt>
      <trkpt lat="43.50627" lon="6.38978">
        <ele>178.9</ele>
        <time>2023-06-21T09:18:31.000Z</time>
      </trkpt>
      <trkpt lat="43.50628" lon="6.38979">
        <ele>178.9</ele>
        <time>2023-06-21T09:18:41.000Z</time>
      </trkpt>
      <trkpt lat="43.50628" lon="6.3898">
        <ele>179.3</ele>
        <time>2023-06-21T09:18:51.000Z</time>
      </trkpt>
      <trkpt lat="43.50626" lon="6.38979">
        <ele>179.1</ele>
        <time>2023-06-21T09:19:01.000Z</time>
      </trkpt>
      <trkpt lat="43.50625" lon="6.3898">
        <ele>179.3</ele>
        <time>2023-06-21T09:19:11.000Z</time>
      </trkpt>
      <trkpt lat="43.50625" lon="6.38979">
        <ele>179.4</ele>
        <time>2023-06-21T09:19:13.000Z</time>
      </trkpt>
    </trkseg>
  </trk>
</gpx>